Time,TemperatureF,DewpointF,PressureIn,WindDirection,WindDirectionDegrees,WindSpeedMPH,WindSpeedGustMPH,Humidity,HourlyPrecipIn,Conditions,Clouds,dailyrainin,SoftwareType,DateUTC
2013-02-04 00:00:00,42.8,42.3,30.21,SE,132,0.0,4.0,98,0.00,,SKC,0.04,VWS V13.01,2013-02-04 08:00:00,
2013-02-04 00:02:00,42.7,42.2,30.21,SE,132,0.0,2.0,98,0.00,,SKC,0.00,VWS V13.01,2013-02-04 08:02:00,
2013-02-04 00:03:00,42.7,41.9,30.21,SE,132,0.0,2.0,97,0.00,,SKC,0.00,VWS V13.01,2013-02-04 08:03:00,
2013-02-04 00:07:00,42.6,42.1,30.20,SE,132,0.0,2.0,98,0.00,,SKC,0.00,VWS V13.01,2013-02-04 08:07:00,
2013-02-04 00:11:00,42.4,41.6,30.20,SE,132,0.0,2.0,97,0.00,,SKC,0.00,VWS V13.01,2013-02-04 08:11:00,
2013-02-04 00:12:00,42.4,41.6,30.20,SE,132,0.0,2.0,97,0.00,,SKC,0.00,VWS V13.01,2013-02-04 08:12:00,
2013-02-04 00:15:00,42.3,41.5,30.20,SE,132,0.0,2.0,97,0.00,,SKC,0.00,VWS V13.01,2013-02-04 08:15:00,
2013-02-04 00:17:00,42.2,41.4,30.20,SE,132,0.0,2.0,97,0.00,,SKC,0.00,VWS V13.01,2013-02-04 08:17:00,
2013-02-04 00:18:00,42.2,41.4,30.20,SE,132,0.0,2.0,97,0.00,,SKC,0.00,VWS V13.01,2013-02-04 08:18:00,
2013-02-04 00:19:00,42.2,41.4,30.20,SE,132,0.0,2.0,97,0.00,,SKC,0.00,VWS V13.01,2013-02-04 08:19:00,
2013-02-04 00:20:00,42.1,41.3,30.20,SE,132,0.0,2.0,97,0.00,,SKC,0.00,VWS V13.01,2013-02-04 08:20:00,
2013-02-04 00:22:00,42.1,41.3,30.20,SE,132,0.0,2.0,97,0.00,,SKC,0.00,VWS V13.01,2013-02-04 08:22:00,
2013-02-04 00:25:00,42.0,41.2,30.20,SE,132,0.0,2.0,97,0.00,,SKC,0.00,VWS V13.01,2013-02-04 08:25:00,
2013-02-04 00:26:00,42.0,41.2,30.20,SE,132,0.0,2.0,97,0.00,,SKC,0.00,VWS V13.01,2013-02-04 08:26:00,
2013-02-04 00:27:00,42.0,41.2,30.20,SE,132,0.0,2.0,97,0.00,,SKC,0.00,VWS V13.01,2013-02-04 08:27:00,
2013-02-04 00:31:00,41.9,41.1,30.20,SE,132,0.0,0.0,97,0.00,,SKC,0.00,VWS V13.01,2013-02-04 08:31:00,
2013-02-04 00:32:00,41.9,41.1,30.20,SE,132,0.0,0.0,97,0.00,,SKC,0.00,VWS V13.01,2013-02-04 08:32:00,
2013-02-04 00:33:00,41.9,41.1,30.20,SE,132,0.0,0.0,97,0.00,,SKC,0.00,VWS V13.01,2013-02-04 08:33:00,
2013-02-04 00:37:00,41.8,41.0,30.20,SE,132,0.0,0.0,97,0.00,,SKC,0.00,VWS V13.01,2013-02-04 08:37:00,
2013-02-04 00:38:00,41.8,41.0,30.21,SE,132,0.0,0.0,97,0.00,,SKC,0.00,VWS V13.01,2013-02-04 08:38:00,
2013-02-04 00:40:00,41.8,41.0,30.21,SE,132,0.0,0.0,97,0.00,,SKC,0.00,VWS V13.01,2013-02-04 08:40:00,
2013-02-04 00:41:00,41.7,40.9,30.21,SE,132,0.0,0.0,97,0.00,,SKC,0.00,VWS V13.01,2013-02-04 08:41:00,
2013-02-04 00:43:00,41.7,40.9,30.21,SE,132,0.0,1.0,97,0.00,,SKC,0.00,VWS V13.01,2013-02-04 08:43:00,
2013-02-04 00:44:00,41.6,40.8,30.21,SE,132,0.0,1.0,97,0.00,,SKC,0.00,VWS V13.01,2013-02-04 08:44:00,
2013-02-04 00:48:00,41.6,41.1,30.21,SE,132,0.0,1.0,98,0.00,,SKC,0.00,VWS V13.01,2013-02-04 08:48:00,
2013-02-04 00:49:00,41.6,41.1,30.21,SE,132,0.0,1.0,98,0.00,,SKC,0.00,VWS V13.01,2013-02-04 08:49:00,
2013-02-04 00:51:00,41.5,41.0,30.22,SE,132,0.0,1.0,98,0.00,,SKC,0.00,VWS V13.01,2013-02-04 08:51:00,
2013-02-04 00:55:00,41.3,40.5,30.21,SE,132,0.0,1.0,97,0.00,,SKC,0.00,VWS V13.01,2013-02-04 08:55:00,
2013-02-04 00:56:00,41.2,40.4,30.21,SE,132,0.0,1.0,97,0.00,,SKC,0.00,VWS V13.01,2013-02-04 08:56:00,
2013-02-04 00:58:00,41.1,40.3,30.21,SE,132,0.0,1.0,97,0.00,,SKC,0.00,VWS V13.01,2013-02-04 08:58:00,
2013-02-04 01:00:00,41.0,40.2,30.21,SE,132,0.0,0.0,97,0.00,,SKC,0.00,VWS V13.01,2013-02-04 09:00:00,
2013-02-04 01:01:00,41.0,40.2,30.21,SE,132,0.0,0.0,97,0.00,,SKC,0.00,VWS V13.01,2013-02-04 09:01:00,
2013-02-04 01:04:00,40.9,40.1,30.21,SE,132,0.0,0.0,97,0.00,,SKC,0.00,VWS V13.01,2013-02-04 09:04:00,
2013-02-04 01:06:00,40.9,40.4,30.21,SE,132,0.0,0.0,98,0.00,,SKC,0.00,VWS V13.01,2013-02-04 09:06:00,
2013-02-04 01:07:00,40.9,40.1,30.21,SE,132,0.0,0.0,97,0.00,,SKC,0.00,VWS V13.01,2013-02-04 09:07:00,
2013-02-04 01:08:00,40.8,40.0,30.21,SE,132,0.0,0.0,97,0.00,,SKC,0.00,VWS V13.01,2013-02-04 09:08:00,
2013-02-04 01:10:00,40.8,40.0,30.21,SE,132,0.0,0.0,97,0.00,,SKC,0.00,VWS V13.01,2013-02-04 09:10:00,
2013-02-04 01:12:00,40.7,39.9,30.21,SE,132,0.0,0.0,97,0.00,,SKC,0.00,VWS V13.01,2013-02-04 09:12:00,
2013-02-04 01:13:00,40.7,39.9,30.21,SE,132,0.0,0.0,97,0.00,,SKC,0.00,VWS V13.01,2013-02-04 09:13:00,
2013-02-04 01:15:00,40.7,39.9,30.21,SE,132,0.0,0.0,97,0.00,,SKC,0.00,VWS V13.01,2013-02-04 09:15:00,
2013-02-04 01:17:00,40.7,40.2,30.21,SE,132,0.0,0.0,98,0.00,,SKC,0.00,VWS V13.01,2013-02-04 09:17:00,
2013-02-04 01:18:00,40.7,40.2,30.21,SE,132,0.0,0.0,98,0.00,,SKC,0.00,VWS V13.01,2013-02-04 09:18:00,
2013-02-04 01:20:00,40.6,40.1,30.21,SE,132,0.0,0.0,98,0.00,,SKC,0.00,VWS V13.01,2013-02-04 09:20:00,
2013-02-04 01:22:00,40.6,40.1,30.21,SE,132,0.0,0.0,98,0.00,,SKC,0.00,VWS V13.01,2013-02-04 09:22:00,
2013-02-04 01:23:00,40.5,40.0,30.21,SE,132,0.0,0.0,98,0.00,,SKC,0.00,VWS V13.01,2013-02-04 09:23:00,
2013-02-04 01:25:00,40.5,40.0,30.21,SE,132,0.0,0.0,98,0.00,,SKC,0.00,VWS V13.01,2013-02-04 09:25:00,
2013-02-04 01:28:00,40.4,39.9,30.21,SE,132,0.0,0.0,98,0.00,,SKC,0.00,VWS V13.01,2013-02-04 09:28:00,
2013-02-04 01:29:00,40.4,39.6,30.21,SE,132,0.0,0.0,97,0.00,,SKC,0.00,VWS V13.01,2013-02-04 09:29:00,
2013-02-04 01:31:00,40.4,39.6,30.21,SE,132,0.0,0.0,97,0.00,,SKC,0.00,VWS V13.01,2013-02-04 09:31:00,
2013-02-04 01:34:00,40.2,39.4,30.20,SE,132,0.0,0.0,97,0.00,,SKC,0.00,VWS V13.01,2013-02-04 09:34:00,
2013-02-04 01:35:00,40.2,39.4,30.20,SE,132,0.0,0.0,97,0.00,,SKC,0.00,VWS V13.01,2013-02-04 09:35:00,
2013-02-04 01:39:00,40.1,39.3,30.20,SE,132,0.0,0.0,97,0.00,,SKC,0.00,VWS V13.01,2013-02-04 09:39:00,
2013-02-04 01:40:00,40.1,39.3,30.20,SE,132,0.0,0.0,97,0.00,,SKC,0.00,VWS V13.01,2013-02-04 09:40:00,
2013-02-04 01:41:00,40.1,39.3,30.20,SE,132,0.0,0.0,97,0.00,,SKC,0.00,VWS V13.01,2013-02-04 09:41:00,
2013-02-04 01:42:00,40.1,39.6,30.20,SE,132,0.0,0.0,98,0.00,,SKC,0.00,VWS V13.01,2013-02-04 09:42:00,
2013-02-04 01:46:00,40.0,39.5,30.20,SE,132,0.0,0.0,98,0.00,,SKC,0.00,VWS V13.01,2013-02-04 09:46:00,
2013-02-04 01:47:00,40.0,39.5,30.20,SE,132,0.0,0.0,98,0.00,,SKC,0.00,VWS V13.01,2013-02-04 09:47:00,
2013-02-04 01:50:00,39.9,39.4,30.20,SE,132,0.0,0.0,98,0.00,,SKC,0.00,VWS V13.01,2013-02-04 09:50:00,
2013-02-04 01:51:00,39.9,39.4,30.20,SE,132,0.0,0.0,98,0.00,,SKC,0.00,VWS V13.01,2013-02-04 09:51:00,
2013-02-04 01:52:00,39.9,39.4,30.20,SE,132,0.0,0.0,98,0.00,,SKC,0.00,VWS V13.01,2013-02-04 09:52:00,
2013-02-04 01:55:00,39.8,39.3,30.20,SE,132,0.0,0.0,98,0.00,,SKC,0.00,VWS V13.01,2013-02-04 09:55:00,
2013-02-04 01:59:00,39.6,38.8,30.20,SE,132,0.0,0.0,97,0.00,,SKC,0.00,VWS V13.01,2013-02-04 09:59:00,
2013-02-04 02:00:00,39.5,38.7,30.20,SE,132,0.0,0.0,97,0.00,,SKC,0.00,VWS V13.01,2013-02-04 10:00:00,
2013-02-04 02:03:00,39.4,38.6,30.19,SE,132,0.0,0.0,97,0.00,,SKC,0.00,VWS V13.01,2013-02-04 10:03:00,
2013-02-04 02:05:00,39.3,38.8,30.20,SE,132,0.0,0.0,98,0.00,,SKC,0.00,VWS V13.01,2013-02-04 10:05:00,
2013-02-04 02:06:00,39.3,38.8,30.20,SE,132,0.0,0.0,98,0.00,,SKC,0.00,VWS V13.01,2013-02-04 10:06:00,
2013-02-04 02:10:00,39.4,38.9,30.19,SE,132,0.0,0.0,98,0.00,,SKC,0.00,VWS V13.01,2013-02-04 10:10:00,
2013-02-04 02:13:00,39.4,38.9,30.19,SE,132,0.0,0.0,98,0.00,,SKC,0.00,VWS V13.01,2013-02-04 10:13:00,
2013-02-04 02:14:00,39.4,38.9,30.19,SE,132,0.0,0.0,98,0.00,,SKC,0.00,VWS V13.01,2013-02-04 10:14:00,
2013-02-04 02:17:00,39.3,38.8,30.19,SE,132,0.0,0.0,98,0.00,,SKC,0.00,VWS V13.01,2013-02-04 10:17:00,
2013-02-04 02:19:00,39.2,38.7,30.19,SE,132,0.0,0.0,98,0.00,,SKC,0.00,VWS V13.01,2013-02-04 10:19:00,
2013-02-04 02:22:00,39.1,38.3,30.19,SE,132,0.0,0.0,97,0.00,,SKC,0.00,VWS V13.01,2013-02-04 10:22:00,
2013-02-04 02:24:00,38.9,38.1,30.19,SE,132,0.0,0.0,97,0.00,,SKC,0.00,VWS V13.01,2013-02-04 10:24:00,
2013-02-04 02:25:00,38.9,38.1,30.19,SE,132,0.0,0.0,97,0.00,,SKC,0.00,VWS V13.01,2013-02-04 10:25:00,
2013-02-04 02:27:00,38.8,38.0,30.19,SE,132,0.0,0.0,97,0.00,,SKC,0.00,VWS V13.01,2013-02-04 10:27:00,
2013-02-04 02:28:00,38.7,37.9,30.19,SE,132,0.0,0.0,97,0.00,,SKC,0.00,VWS V13.01,2013-02-04 10:28:00,
2013-02-04 02:29:00,38.6,37.8,30.19,SE,132,0.0,0.0,97,0.00,,SKC,0.00,VWS V13.01,2013-02-04 10:29:00,
2013-02-04 02:31:00,38.4,37.6,30.19,SE,132,0.0,0.0,97,0.00,,SKC,0.00,VWS V13.01,2013-02-04 10:31:00,
2013-02-04 02:33:00,38.3,37.5,30.19,SE,132,0.0,0.0,97,0.00,,SKC,0.00,VWS V13.01,2013-02-04 10:33:00,
2013-02-04 02:35:00,38.2,37.4,30.19,SE,132,0.0,0.0,97,0.00,,SKC,0.00,VWS V13.01,2013-02-04 10:35:00,
2013-02-04 02:37:00,38.1,37.3,30.20,SE,132,0.0,0.0,97,0.00,,SKC,0.00,VWS V13.01,2013-02-04 10:37:00,
2013-02-04 02:40:00,37.9,37.1,30.20,SE,132,0.0,0.0,97,0.00,,SKC,0.00,VWS V13.01,2013-02-04 10:40:00,
2013-02-04 02:43:00,37.7,36.9,30.20,SE,132,0.0,0.0,97,0.00,,SKC,0.00,VWS V13.01,2013-02-04 10:43:00,
2013-02-04 02:45:00,37.7,36.9,30.20,SE,132,0.0,0.0,97,0.00,,SKC,0.00,VWS V13.01,2013-02-04 10:45:00,
2013-02-04 02:47:00,37.7,36.9,30.21,SE,132,0.0,0.0,97,0.00,,SKC,0.00,VWS V13.01,2013-02-04 10:47:00,
2013-02-04 02:51:00,37.7,37.2,30.21,SE,132,1.0,1.0,98,0.00,,SKC,0.00,VWS V13.01,2013-02-04 10:51:00,
2013-02-04 02:52:00,37.8,37.3,30.21,SSE,159,1.0,1.0,98,0.00,,SKC,0.00,VWS V13.01,2013-02-04 10:52:00,
2013-02-04 02:54:00,38.0,37.5,30.21,SSE,159,1.0,1.0,98,0.00,,SKC,0.00,VWS V13.01,2013-02-04 10:54:00,
2013-02-04 02:56:00,38.1,37.6,30.21,SSE,159,0.0,1.0,98,0.00,,SKC,0.00,VWS V13.01,2013-02-04 10:56:00,
2013-02-04 02:59:00,38.2,37.7,30.20,SSE,159,0.0,1.0,98,0.00,,SKC,0.00,VWS V13.01,2013-02-04 10:59:00,
2013-02-04 03:00:00,38.2,37.7,30.20,SSE,159,0.0,1.0,98,0.00,,SKC,0.00,VWS V13.01,2013-02-04 11:00:00,
2013-02-04 03:04:00,38.3,37.8,30.20,SSE,159,0.0,0.0,98,0.00,,SKC,0.00,VWS V13.01,2013-02-04 11:04:00,
2013-02-04 03:06:00,38.3,37.8,30.20,SSE,159,0.0,0.0,98,0.00,,SKC,0.00,VWS V13.01,2013-02-04 11:06:00,
2013-02-04 03:07:00,38.3,37.8,30.20,SSE,159,0.0,0.0,98,0.00,,SKC,0.00,VWS V13.01,2013-02-04 11:07:00,
2013-02-04 03:09:00,38.3,37.8,30.20,SSE,159,0.0,0.0,98,0.00,,SKC,0.00,VWS V13.01,2013-02-04 11:09:00,
2013-02-04 03:12:00,38.3,37.8,30.19,SSE,159,0.0,0.0,98,0.00,,SKC,0.00,VWS V13.01,2013-02-04 11:12:00,
2013-02-04 03:15:00,38.4,37.9,30.20,SSW,199,1.0,2.0,98,0.00,,SKC,0.00,VWS V13.01,2013-02-04 11:15:00,
2013-02-04 03:17:00,38.5,38.0,30.20,SSW,199,0.0,2.0,98,0.00,,SKC,0.00,VWS V13.01,2013-02-04 11:17:00,
2013-02-04 03:19:00,38.6,38.1,30.20,SSW,199,0.0,2.0,98,0.00,,SKC,0.00,VWS V13.01,2013-02-04 11:19:00,
2013-02-04 03:21:00,38.6,38.1,30.20,SSW,199,0.0,2.0,98,0.00,,SKC,0.00,VWS V13.01,2013-02-04 11:21:00,
2013-02-04 03:22:00,38.7,38.2,30.19,SSW,199,0.0,2.0,98,0.00,,SKC,0.00,VWS V13.01,2013-02-04 11:22:00,
2013-02-04 03:27:00,38.7,38.2,30.18,SSW,199,0.0,2.0,98,0.00,,SKC,0.00,VWS V13.01,2013-02-04 11:27:00,
2013-02-04 03:29:00,38.6,38.1,30.18,SSW,199,0.0,2.0,98,0.00,,SKC,0.00,VWS V13.01,2013-02-04 11:29:00,
2013-02-04 03:33:00,38.6,38.1,30.18,SSW,199,0.0,1.0,98,0.00,,SKC,0.00,VWS V13.01,2013-02-04 11:33:00,
2013-02-04 03:34:00,38.6,38.1,30.18,SSW,198,1.0,1.0,98,0.00,,SKC,0.00,VWS V13.01,2013-02-04 11:34:00,
2013-02-04 03:35:00,38.6,38.1,30.18,SSW,198,0.0,1.0,98,0.00,,SKC,0.00,VWS V13.01,2013-02-04 11:35:00,
2013-02-04 03:39:00,38.7,38.2,30.18,SSW,198,0.0,1.0,98,0.00,,SKC,0.00,VWS V13.01,2013-02-04 11:39:00,
2013-02-04 03:40:00,38.7,38.2,30.18,SSW,198,0.0,1.0,98,0.00,,SKC,0.00,VWS V13.01,2013-02-04 11:40:00,
2013-02-04 03:43:00,38.7,38.2,30.18,SSW,198,0.0,1.0,98,0.00,,SKC,0.00,VWS V13.01,2013-02-04 11:43:00,
2013-02-04 03:45:00,38.7,38.2,30.18,SSW,198,0.0,1.0,98,0.00,,SKC,0.00,VWS V13.01,2013-02-04 11:45:00,
2013-02-04 03:49:00,38.8,38.3,30.18,SSW,198,0.0,1.0,98,0.00,,SKC,0.00,VWS V13.01,2013-02-04 11:49:00,
2013-02-04 03:50:00,38.8,38.3,30.18,SSW,198,0.0,1.0,98,0.00,,SKC,0.00,VWS V13.01,2013-02-04 11:50:00,
2013-02-04 03:51:00,38.9,38.4,30.18,SSW,198,0.0,1.0,98,0.00,,SKC,0.00,VWS V13.01,2013-02-04 11:51:00,
2013-02-04 03:53:00,38.9,38.4,30.18,SSW,198,0.0,1.0,98,0.00,,SKC,0.00,VWS V13.01,2013-02-04 11:53:00,
2013-02-04 03:55:00,38.9,38.4,30.18,SSW,198,0.0,1.0,98,0.00,,SKC,0.00,VWS V13.01,2013-02-04 11:55:00,
2013-02-04 03:57:00,38.9,38.4,30.18,SSW,198,0.0,1.0,98,0.00,,SKC,0.00,VWS V13.01,2013-02-04 11:57:00,
2013-02-04 03:58:00,38.8,38.3,30.18,SSW,198,0.0,1.0,98,0.00,,SKC,0.00,VWS V13.01,2013-02-04 11:58:00,
2013-02-04 03:59:00,38.8,38.3,30.18,SSW,198,0.0,1.0,98,0.00,,SKC,0.00,VWS V13.01,2013-02-04 11:59:00,
2013-02-04 04:01:00,38.7,38.2,30.18,SSW,198,0.0,0.0,98,0.00,,SKC,0.00,VWS V13.01,2013-02-04 12:01:00,
2013-02-04 04:04:00,38.7,38.2,30.18,SSW,198,0.0,0.0,98,0.00,,SKC,0.00,VWS V13.01,2013-02-04 12:04:00,
2013-02-04 04:05:00,38.6,38.1,30.18,SSW,198,0.0,0.0,98,0.00,,SKC,0.00,VWS V13.01,2013-02-04 12:05:00,
2013-02-04 04:08:00,38.5,38.0,30.18,SSW,198,0.0,0.0,98,0.00,,SKC,0.00,VWS V13.01,2013-02-04 12:08:00,
2013-02-04 04:09:00,38.4,37.9,30.18,SSW,198,0.0,0.0,98,0.00,,SKC,0.00,VWS V13.01,2013-02-04 12:09:00,
2013-02-04 04:13:00,38.2,37.7,30.18,SSW,198,0.0,0.0,98,0.00,,SKC,0.00,VWS V13.01,2013-02-04 12:13:00,
2013-02-04 04:14:00,38.1,37.6,30.18,SSW,198,0.0,0.0,98,0.00,,SKC,0.00,VWS V13.01,2013-02-04 12:14:00,
2013-02-04 04:16:00,38.0,37.2,30.18,SSW,198,0.0,0.0,97,0.00,,SKC,0.00,VWS V13.01,2013-02-04 12:16:00,
2013-02-04 04:19:00,37.8,37.0,30.18,SSW,198,0.0,0.0,97,0.00,,SKC,0.00,VWS V13.01,2013-02-04 12:19:00,
2013-02-04 04:20:00,37.7,36.9,30.18,SSW,198,0.0,0.0,97,0.00,,SKC,0.00,VWS V13.01,2013-02-04 12:20:00,
2013-02-04 04:21:00,37.7,36.9,30.18,SSW,198,0.0,0.0,97,0.00,,SKC,0.00,VWS V13.01,2013-02-04 12:21:00,
2013-02-04 04:24:00,37.5,36.7,30.18,SSW,198,0.0,0.0,97,0.00,,SKC,0.00,VWS V13.01,2013-02-04 12:24:00,
2013-02-04 04:27:00,37.5,36.7,30.18,SSW,198,0.0,0.0,97,0.00,,SKC,0.00,VWS V13.01,2013-02-04 12:27:00,
2013-02-04 04:28:00,37.4,36.6,30.18,SSW,198,0.0,0.0,97,0.00,,SKC,0.00,VWS V13.01,2013-02-04 12:28:00,
2013-02-04 04:30:00,37.4,36.6,30.18,SSW,198,0.0,0.0,97,0.00,,SKC,0.00,VWS V13.01,2013-02-04 12:30:00,
2013-02-04 04:32:00,37.3,36.5,30.18,SSW,198,0.0,0.0,97,0.00,,SKC,0.00,VWS V13.01,2013-02-04 12:32:00,
2013-02-04 04:34:00,37.1,36.3,30.18,SSW,198,0.0,0.0,97,0.00,,SKC,0.00,VWS V13.01,2013-02-04 12:34:00,
2013-02-04 04:35:00,37.1,36.3,30.18,SSW,198,0.0,0.0,97,0.00,,SKC,0.00,VWS V13.01,2013-02-04 12:35:00,
2013-02-04 04:37:00,37.0,36.5,30.18,SSW,198,0.0,0.0,98,0.00,,SKC,0.00,VWS V13.01,2013-02-04 12:37:00,
2013-02-04 04:39:00,37.0,36.2,30.18,SSW,198,0.0,0.0,97,0.00,,SKC,0.00,VWS V13.01,2013-02-04 12:39:00,
2013-02-04 04:43:00,36.8,36.0,30.18,SSW,198,0.0,0.0,97,0.00,,SKC,0.00,VWS V13.01,2013-02-04 12:43:00,
2013-02-04 04:44:00,36.8,36.0,30.18,SSW,198,0.0,0.0,97,0.00,,SKC,0.00,VWS V13.01,2013-02-04 12:44:00,
2013-02-04 04:45:00,36.7,36.2,30.18,SSW,198,0.0,0.0,98,0.00,,SKC,0.00,VWS V13.01,2013-02-04 12:45:00,
2013-02-04 04:49:00,36.6,36.1,30.18,SSW,198,0.0,0.0,98,0.00,,SKC,0.00,VWS V13.01,2013-02-04 12:49:00,
2013-02-04 04:52:00,36.5,36.0,30.18,SSW,198,0.0,0.0,98,0.00,,SKC,0.00,VWS V13.01,2013-02-04 12:52:00,
2013-02-04 04:53:00,36.5,36.0,30.18,SSW,198,0.0,0.0,98,0.00,,SKC,0.00,VWS V13.01,2013-02-04 12:53:00,
2013-02-04 04:57:00,36.4,35.9,30.18,SSW,198,0.0,0.0,98,0.00,,SKC,0.00,VWS V13.01,2013-02-04 12:57:00,
2013-02-04 04:59:00,36.4,35.9,30.18,SSW,198,0.0,0.0,98,0.00,,SKC,0.00,VWS V13.01,2013-02-04 12:59:00,
2013-02-04 05:00:00,36.4,35.9,30.18,SSW,198,0.0,0.0,98,0.00,,SKC,0.00,VWS V13.01,2013-02-04 13:00:00,
2013-02-04 05:01:00,36.4,35.9,30.18,SSW,198,0.0,0.0,98,0.00,,SKC,0.00,VWS V13.01,2013-02-04 13:01:00,
2013-02-04 05:04:00,36.5,36.0,30.18,SSW,198,0.0,1.0,98,0.00,,SKC,0.00,VWS V13.01,2013-02-04 13:04:00,
2013-02-04 05:05:00,36.5,36.0,30.18,SSW,198,0.0,1.0,98,0.00,,SKC,0.00,VWS V13.01,2013-02-04 13:05:00,
2013-02-04 05:08:00,36.6,36.1,30.18,SSW,198,0.0,1.0,98,0.00,,SKC,0.00,VWS V13.01,2013-02-04 13:08:00,
2013-02-04 05:11:00,36.6,36.1,30.18,SSW,198,0.0,1.0,98,0.00,,SKC,0.00,VWS V13.01,2013-02-04 13:11:00,
2013-02-04 05:12:00,36.6,36.1,30.18,SSW,198,0.0,1.0,98,0.00,,SKC,0.00,VWS V13.01,2013-02-04 13:12:00,
2013-02-04 05:16:00,36.5,36.0,30.18,SSW,198,0.0,1.0,98,0.00,,SKC,0.00,VWS V13.01,2013-02-04 13:16:00,
2013-02-04 05:17:00,36.5,36.0,30.18,SSW,198,0.0,1.0,98,0.00,,SKC,0.00,VWS V13.01,2013-02-04 13:17:00,
2013-02-04 05:18:00,36.5,36.0,30.18,SSW,198,0.0,1.0,98,0.00,,SKC,0.00,VWS V13.01,2013-02-04 13:18:00,
2013-02-04 05:20:00,36.5,36.0,30.18,SSW,198,0.0,1.0,98,0.00,,SKC,0.00,VWS V13.01,2013-02-04 13:20:00,
2013-02-04 05:23:00,36.5,36.0,30.18,SSW,198,0.0,1.0,98,0.00,,SKC,0.00,VWS V13.01,2013-02-04 13:23:00,
2013-02-04 05:24:00,36.5,36.0,30.18,SSW,198,0.0,1.0,98,0.00,,SKC,0.00,VWS V13.01,2013-02-04 13:24:00,
2013-02-04 05:25:00,36.5,36.0,30.18,SSW,198,0.0,1.0,98,0.00,,SKC,0.00,VWS V13.01,2013-02-04 13:25:00,
2013-02-04 05:26:00,36.6,36.1,30.18,SSW,198,0.0,1.0,98,0.00,,SKC,0.00,VWS V13.01,2013-02-04 13:26:00,
2013-02-04 05:29:00,36.6,36.1,30.18,SSW,198,0.0,1.0,98,0.00,,SKC,0.00,VWS V13.01,2013-02-04 13:29:00,
2013-02-04 05:30:00,36.6,36.1,30.18,SSW,198,0.0,1.0,98,0.00,,SKC,0.00,VWS V13.01,2013-02-04 13:30:00,
2013-02-04 05:32:00,36.6,36.1,30.18,SSW,198,0.0,0.0,98,0.00,,SKC,0.00,VWS V13.01,2013-02-04 13:32:00,
2013-02-04 05:33:00,36.6,36.1,30.18,SSW,198,0.0,0.0,98,0.00,,SKC,0.00,VWS V13.01,2013-02-04 13:33:00,
2013-02-04 05:36:00,36.6,36.1,30.18,SSW,198,0.0,0.0,98,0.00,,SKC,0.00,VWS V13.01,2013-02-04 13:36:00,
2013-02-04 05:38:00,36.6,36.1,30.18,SSW,198,0.0,0.0,98,0.00,,SKC,0.00,VWS V13.01,2013-02-04 13:38:00,
2013-02-04 05:39:00,36.6,36.1,30.18,SSW,198,0.0,0.0,98,0.00,,SKC,0.00,VWS V13.01,2013-02-04 13:39:00,
2013-02-04 05:42:00,36.6,36.1,30.17,SSW,198,0.0,1.0,98,0.00,,SKC,0.00,VWS V13.01,2013-02-04 13:42:00,
2013-02-04 05:43:00,36.6,36.1,30.17,SSW,198,0.0,1.0,98,0.00,,SKC,0.00,VWS V13.01,2013-02-04 13:43:00,
2013-02-04 05:46:00,36.6,36.1,30.17,SSW,198,0.0,1.0,98,0.00,,SKC,0.00,VWS V13.01,2013-02-04 13:46:00,
2013-02-04 05:47:00,36.6,36.1,30.18,South,172,0.0,1.0,98,0.00,,SKC,0.00,VWS V13.01,2013-02-04 13:47:00,
2013-02-04 05:48:00,36.6,36.1,30.18,South,172,0.0,1.0,98,0.00,,SKC,0.00,VWS V13.01,2013-02-04 13:48:00,
2013-02-04 05:49:00,36.6,36.1,30.18,South,172,0.0,1.0,98,0.00,,SKC,0.00,VWS V13.01,2013-02-04 13:49:00,
2013-02-04 05:52:00,36.7,36.2,30.17,South,172,0.0,1.0,98,0.00,,SKC,0.00,VWS V13.01,2013-02-04 13:52:00,
2013-02-04 05:53:00,36.7,36.2,30.17,South,172,0.0,1.0,98,0.00,,SKC,0.00,VWS V13.01,2013-02-04 13:53:00,
2013-02-04 05:55:00,36.7,36.2,30.17,South,172,0.0,1.0,98,0.00,,SKC,0.00,VWS V13.01,2013-02-04 13:55:00,
2013-02-04 05:58:00,36.8,36.3,30.17,South,172,0.0,1.0,98,0.00,,SKC,0.00,VWS V13.01,2013-02-04 13:58:00,
2013-02-04 05:59:00,36.8,36.3,30.17,South,173,0.0,1.0,98,0.00,,SKC,0.00,VWS V13.01,2013-02-04 13:59:00,
2013-02-04 06:00:00,36.8,36.3,30.17,South,173,0.0,1.0,98,0.00,,SKC,0.00,VWS V13.01,2013-02-04 14:00:00,
2013-02-04 06:04:00,37.0,36.8,30.16,South,177,0.0,1.0,99,0.00,,SKC,0.00,VWS V13.01,2013-02-04 14:04:00,
2013-02-04 06:06:00,37.1,36.8,30.17,South,177,0.0,1.0,99,0.00,,SKC,0.00,VWS V13.01,2013-02-04 14:06:00,
2013-02-04 06:09:00,37.1,36.8,30.16,South,177,0.0,1.0,99,0.01,,SKC,0.01,VWS V13.01,2013-02-04 14:09:00,
2013-02-04 06:10:00,37.1,36.8,30.16,South,174,1.0,1.0,99,0.01,,SKC,0.01,VWS V13.01,2013-02-04 14:10:00,
2013-02-04 06:13:00,37.2,36.7,30.16,SSE,163,0.0,1.0,98,0.01,,SKC,0.01,VWS V13.01,2013-02-04 14:13:00,
2013-02-04 06:15:00,37.3,36.8,30.16,SSE,163,0.0,1.0,98,0.01,,SKC,0.01,VWS V13.01,2013-02-04 14:15:00,
2013-02-04 06:16:00,37.3,36.8,30.16,South,185,0.0,1.0,98,0.01,,SKC,0.01,VWS V13.01,2013-02-04 14:16:00,
2013-02-04 06:17:00,37.3,36.8,30.16,South,183,0.0,1.0,98,0.01,,SKC,0.01,VWS V13.01,2013-02-04 14:17:00,
2013-02-04 06:19:00,37.3,36.8,30.16,South,172,0.0,1.0,98,0.01,,SKC,0.01,VWS V13.01,2013-02-04 14:19:00,
2013-02-04 06:20:00,37.3,36.8,30.16,South,171,0.0,1.0,98,0.01,,SKC,0.01,VWS V13.01,2013-02-04 14:20:00,
2013-02-04 06:24:00,37.3,36.8,30.16,South,171,0.0,1.0,98,0.01,,SKC,0.01,VWS V13.01,2013-02-04 14:24:00,
2013-02-04 06:25:00,37.3,36.8,30.16,South,171,0.0,1.0,98,0.01,,SKC,0.01,VWS V13.01,2013-02-04 14:25:00,
2013-02-04 06:26:00,37.3,36.8,30.16,South,171,0.0,1.0,98,0.01,,SKC,0.01,VWS V13.01,2013-02-04 14:26:00,
2013-02-04 06:27:00,37.3,36.8,30.16,South,171,1.0,1.0,98,0.01,,SKC,0.01,VWS V13.01,2013-02-04 14:27:00,
2013-02-04 06:30:00,37.2,36.7,30.16,SE,136,0.0,1.0,98,0.01,,SKC,0.01,VWS V13.01,2013-02-04 14:30:00,
2013-02-04 06:31:00,37.2,36.7,30.16,SE,142,1.0,2.0,98,0.01,,SKC,0.01,VWS V13.01,2013-02-04 14:31:00,
2013-02-04 06:32:00,37.2,36.7,30.16,SE,142,0.0,2.0,98,0.01,,SKC,0.01,VWS V13.01,2013-02-04 14:32:00,
2013-02-04 06:33:00,37.2,36.7,30.16,SE,146,0.0,2.0,98,0.01,,SKC,0.01,VWS V13.01,2013-02-04 14:33:00,
2013-02-04 06:38:00,37.2,36.7,30.15,South,169,0.0,2.0,98,0.01,,SKC,0.01,VWS V13.01,2013-02-04 14:38:00,
2013-02-04 06:39:00,37.2,36.7,30.15,South,176,1.0,2.0,98,0.01,,SKC,0.01,VWS V13.01,2013-02-04 14:39:00,
2013-02-04 06:41:00,37.2,36.7,30.15,South,186,0.0,2.0,98,0.01,,SKC,0.01,VWS V13.01,2013-02-04 14:41:00,
2013-02-04 06:43:00,37.1,36.6,30.15,South,185,0.0,2.0,98,0.01,,SKC,0.01,VWS V13.01,2013-02-04 14:43:00,
2013-02-04 06:44:00,37.1,36.6,30.15,South,185,0.0,2.0,98,0.01,,SKC,0.01,VWS V13.01,2013-02-04 14:44:00,
2013-02-04 06:48:00,37.0,36.5,30.16,South,185,0.0,2.0,98,0.01,,SKC,0.01,VWS V13.01,2013-02-04 14:48:00,
2013-02-04 06:49:00,36.9,36.4,30.16,South,185,0.0,2.0,98,0.01,,SKC,0.01,VWS V13.01,2013-02-04 14:49:00,
2013-02-04 06:50:00,37.0,36.5,30.16,South,185,0.0,2.0,98,0.01,,SKC,0.01,VWS V13.01,2013-02-04 14:50:00,
2013-02-04 06:54:00,36.8,36.3,30.16,South,185,0.0,2.0,98,0.01,,SKC,0.01,VWS V13.01,2013-02-04 14:54:00,
2013-02-04 06:55:00,36.8,36.3,30.16,South,185,0.0,2.0,98,0.01,,SKC,0.01,VWS V13.01,2013-02-04 14:55:00,
2013-02-04 06:57:00,36.8,36.3,30.16,South,185,0.0,2.0,98,0.01,,SKC,0.01,VWS V13.01,2013-02-04 14:57:00,
2013-02-04 07:00:00,36.8,36.3,30.16,South,185,1.0,2.0,98,0.01,,SKC,0.01,VWS V13.01,2013-02-04 15:00:00,
2013-02-04 07:02:00,36.7,36.2,30.16,South,185,0.0,0.0,98,0.01,,SKC,0.01,VWS V13.01,2013-02-04 15:02:00,
2013-02-04 07:03:00,36.7,36.2,30.16,South,185,0.0,0.0,98,0.01,,SKC,0.01,VWS V13.01,2013-02-04 15:03:00,
2013-02-04 07:04:00,36.7,36.2,30.16,South,178,1.0,2.0,98,0.01,,SKC,0.01,VWS V13.01,2013-02-04 15:04:00,
2013-02-04 07:06:00,36.7,36.2,30.16,South,175,0.0,2.0,98,0.01,,SKC,0.01,VWS V13.01,2013-02-04 15:06:00,
2013-02-04 07:08:00,36.8,36.3,30.16,South,175,0.0,2.0,98,0.01,,SKC,0.01,VWS V13.01,2013-02-04 15:08:00,
2013-02-04 07:11:00,36.8,36.3,30.16,South,175,0.0,2.0,98,0.01,,SKC,0.01,VWS V13.01,2013-02-04 15:11:00,
2013-02-04 07:13:00,36.9,36.4,30.16,South,175,0.0,2.0,98,0.01,,SKC,0.01,VWS V13.01,2013-02-04 15:13:00,
2013-02-04 07:14:00,36.9,36.4,30.16,South,175,0.0,2.0,98,0.01,,SKC,0.01,VWS V13.01,2013-02-04 15:14:00,
2013-02-04 07:15:00,37.0,36.5,30.16,South,175,0.0,2.0,98,0.01,,SKC,0.01,VWS V13.01,2013-02-04 15:15:00,
2013-02-04 07:18:00,37.0,36.5,30.15,South,175,0.0,2.0,98,0.01,,SKC,0.01,VWS V13.01,2013-02-04 15:18:00,
2013-02-04 07:19:00,37.1,36.6,30.16,South,175,0.0,2.0,98,0.01,,SKC,0.01,VWS V13.01,2013-02-04 15:19:00,
2013-02-04 07:23:00,37.1,36.6,30.16,WSW,249,2.0,2.0,98,0.01,,SKC,0.01,VWS V13.01,2013-02-04 15:23:00,
2013-02-04 07:25:00,37.3,36.8,30.16,WSW,249,0.0,2.0,98,0.01,,SKC,0.01,VWS V13.01,2013-02-04 15:25:00,
2013-02-04 07:28:00,37.4,36.9,30.16,SW,215,1.0,3.0,98,0.01,,SKC,0.01,VWS V13.01,2013-02-04 15:28:00,
2013-02-04 07:30:00,37.5,37.0,30.16,SSW,202,0.0,0.0,98,0.01,,SKC,0.01,VWS V13.01,2013-02-04 15:30:00,
2013-02-04 07:32:00,37.5,37.0,30.16,South,184,0.0,1.0,98,0.00,,SKC,0.01,VWS V13.01,2013-02-04 15:32:00,
2013-02-04 07:33:00,37.5,37.0,30.16,South,184,0.0,1.0,98,0.00,,SKC,0.01,VWS V13.01,2013-02-04 15:33:00,
2013-02-04 07:35:00,37.5,37.0,30.16,South,184,0.0,1.0,98,0.00,,SKC,0.01,VWS V13.01,2013-02-04 15:35:00,
2013-02-04 07:36:00,37.5,37.0,30.15,South,184,0.0,1.0,98,0.00,,SKC,0.01,VWS V13.01,2013-02-04 15:36:00,
2013-02-04 07:38:00,37.5,37.0,30.15,South,184,0.0,1.0,98,0.00,,SKC,0.01,VWS V13.01,2013-02-04 15:38:00,
2013-02-04 07:39:00,37.5,37.0,30.15,South,184,0.0,1.0,98,0.00,,SKC,0.01,VWS V13.01,2013-02-04 15:39:00,
2013-02-04 07:41:00,37.4,36.6,30.15,South,184,0.0,1.0,97,0.00,,SKC,0.01,VWS V13.01,2013-02-04 15:41:00,
2013-02-04 07:42:00,37.4,36.6,30.15,South,184,0.0,1.0,97,0.00,,SKC,0.01,VWS V13.01,2013-02-04 15:42:00,
2013-02-04 07:43:00,37.3,36.5,30.15,South,184,0.0,1.0,97,0.00,,SKC,0.01,VWS V13.01,2013-02-04 15:43:00,
2013-02-04 07:45:00,37.2,36.4,30.16,South,184,0.0,1.0,97,0.00,,SKC,0.01,VWS V13.01,2013-02-04 15:45:00,
2013-02-04 07:47:00,37.1,36.3,30.16,South,184,0.0,1.0,97,0.00,,SKC,0.01,VWS V13.01,2013-02-04 15:47:00,
2013-02-04 07:49:00,37.0,36.2,30.16,South,184,0.0,1.0,97,0.00,,SKC,0.01,VWS V13.01,2013-02-04 15:49:00,
2013-02-04 07:50:00,37.0,36.2,30.16,South,184,0.0,1.0,97,0.00,,SKC,0.01,VWS V13.01,2013-02-04 15:50:00,
2013-02-04 07:52:00,36.9,36.1,30.16,South,184,0.0,1.0,97,0.00,,SKC,0.01,VWS V13.01,2013-02-04 15:52:00,
2013-02-04 07:56:00,36.8,36.0,30.16,South,184,0.0,1.0,97,0.00,,SKC,0.01,VWS V13.01,2013-02-04 15:56:00,
2013-02-04 07:58:00,36.7,35.9,30.16,South,184,0.0,1.0,97,0.00,,SKC,0.01,VWS V13.01,2013-02-04 15:58:00,
2013-02-04 08:01:00,36.7,35.9,30.16,South,184,0.0,0.0,97,0.00,,SKC,0.01,VWS V13.01,2013-02-04 16:01:00,
2013-02-04 08:02:00,36.7,35.9,30.16,South,184,0.0,0.0,97,0.00,,SKC,0.01,VWS V13.01,2013-02-04 16:02:00,
2013-02-04 08:04:00,36.7,35.9,30.16,South,184,0.0,0.0,97,0.00,,SKC,0.01,VWS V13.01,2013-02-04 16:04:00,
2013-02-04 08:06:00,36.7,35.9,30.16,South,184,0.0,0.0,97,0.00,,SKC,0.01,VWS V13.01,2013-02-04 16:06:00,
2013-02-04 08:09:00,36.6,35.8,30.16,South,184,0.0,0.0,97,0.00,,SKC,0.01,VWS V13.01,2013-02-04 16:09:00,
2013-02-04 08:11:00,36.6,35.8,30.16,South,184,0.0,0.0,97,0.00,,SKC,0.01,VWS V13.01,2013-02-04 16:11:00,
2013-02-04 08:13:00,36.6,35.8,30.16,South,184,0.0,0.0,97,0.00,,SKC,0.01,VWS V13.01,2013-02-04 16:13:00,
2013-02-04 08:16:00,36.5,35.7,30.16,South,184,0.0,0.0,97,0.00,,SKC,0.01,VWS V13.01,2013-02-04 16:16:00,
2013-02-04 08:18:00,36.5,35.7,30.16,South,184,0.0,0.0,97,0.00,,SKC,0.01,VWS V13.01,2013-02-04 16:18:00,
2013-02-04 08:19:00,36.5,35.7,30.16,South,184,0.0,0.0,97,0.00,,SKC,0.01,VWS V13.01,2013-02-04 16:19:00,
2013-02-04 08:20:00,36.5,36.0,30.16,South,184,0.0,0.0,98,0.00,,SKC,0.01,VWS V13.01,2013-02-04 16:20:00,
2013-02-04 08:22:00,36.5,36.0,30.16,South,184,0.0,0.0,98,0.00,,SKC,0.01,VWS V13.01,2013-02-04 16:22:00,
2013-02-04 08:23:00,36.5,36.0,30.16,South,184,0.0,1.0,98,0.00,,SKC,0.01,VWS V13.01,2013-02-04 16:23:00,
2013-02-04 08:27:00,36.5,36.0,30.17,South,184,0.0,1.0,98,0.00,,SKC,0.01,VWS V13.01,2013-02-04 16:27:00,
2013-02-04 08:28:00,36.6,36.1,30.17,South,184,0.0,1.0,98,0.00,,SKC,0.01,VWS V13.01,2013-02-04 16:28:00,
2013-02-04 08:29:00,36.6,36.1,30.17,South,184,0.0,1.0,98,0.00,,SKC,0.01,VWS V13.01,2013-02-04 16:29:00,
2013-02-04 08:32:00,36.6,36.1,30.16,South,184,0.0,0.0,98,0.00,,SKC,0.01,VWS V13.01,2013-02-04 16:32:00,
2013-02-04 08:34:00,36.7,36.2,30.16,South,184,0.0,0.0,98,0.00,,SKC,0.01,VWS V13.01,2013-02-04 16:34:00,
2013-02-04 08:37:00,36.8,36.3,30.17,South,184,0.0,0.0,98,0.00,,SKC,0.01,VWS V13.01,2013-02-04 16:37:00,
2013-02-04 08:39:00,36.8,36.3,30.16,South,184,0.0,0.0,98,0.00,,SKC,0.01,VWS V13.01,2013-02-04 16:39:00,
2013-02-04 08:40:00,36.8,36.3,30.16,South,184,0.0,0.0,98,0.00,,SKC,0.01,VWS V13.01,2013-02-04 16:40:00,
2013-02-04 08:41:00,36.9,36.4,30.16,South,184,1.0,1.0,98,0.00,,SKC,0.01,VWS V13.01,2013-02-04 16:41:00,
2013-02-04 08:42:00,37.0,36.5,30.16,South,184,0.0,1.0,98,0.00,,SKC,0.01,VWS V13.01,2013-02-04 16:42:00,
2013-02-04 08:44:00,37.1,36.6,30.16,South,184,0.0,1.0,98,0.00,,SKC,0.01,VWS V13.01,2013-02-04 16:44:00,
2013-02-04 08:47:00,37.3,36.8,30.16,South,184,0.0,1.0,98,0.00,,SKC,0.01,VWS V13.01,2013-02-04 16:47:00,
2013-02-04 08:48:00,37.3,36.8,30.16,South,184,0.0,1.0,98,0.00,,SKC,0.01,VWS V13.01,2013-02-04 16:48:00,
2013-02-04 08:50:00,37.5,37.0,30.16,South,184,0.0,1.0,98,0.00,,SKC,0.01,VWS V13.01,2013-02-04 16:50:00,
2013-02-04 08:53:00,37.6,37.1,30.16,South,184,0.0,1.0,98,0.00,,SKC,0.01,VWS V13.01,2013-02-04 16:53:00,
2013-02-04 08:54:00,37.7,37.2,30.16,South,184,0.0,1.0,98,0.00,,SKC,0.01,VWS V13.01,2013-02-04 16:54:00,
2013-02-04 08:57:00,37.8,37.3,30.16,South,184,0.0,1.0,98,0.00,,SKC,0.01,VWS V13.01,2013-02-04 16:57:00,
2013-02-04 08:59:00,37.9,37.4,30.16,South,184,0.0,1.0,98,0.00,,SKC,0.01,VWS V13.01,2013-02-04 16:59:00,
2013-02-04 09:01:00,38.0,37.5,30.16,South,184,0.0,0.0,98,0.00,,SKC,0.01,VWS V13.01,2013-02-04 17:01:00,
2013-02-04 09:02:00,38.0,37.5,30.16,South,184,0.0,0.0,98,0.00,,SKC,0.01,VWS V13.01,2013-02-04 17:02:00,
2013-02-04 09:04:00,38.1,37.6,30.16,South,184,0.0,1.0,98,0.00,,SKC,0.01,VWS V13.01,2013-02-04 17:04:00,
2013-02-04 09:06:00,38.2,37.7,30.16,South,184,0.0,1.0,98,0.00,,SKC,0.01,VWS V13.01,2013-02-04 17:06:00,
2013-02-04 09:07:00,38.2,37.7,30.16,South,184,0.0,1.0,98,0.00,,SKC,0.01,VWS V13.01,2013-02-04 17:07:00,
2013-02-04 09:09:00,38.4,37.9,30.16,South,184,1.0,1.0,98,0.00,,SKC,0.01,VWS V13.01,2013-02-04 17:09:00,
2013-02-04 09:10:00,38.4,37.9,30.16,South,184,0.0,1.0,98,0.00,,SKC,0.01,VWS V13.01,2013-02-04 17:10:00,
2013-02-04 09:11:00,38.5,38.0,30.16,South,184,0.0,1.0,98,0.00,,SKC,0.01,VWS V13.01,2013-02-04 17:11:00,
2013-02-04 09:16:00,38.7,38.2,30.16,South,184,0.0,1.0,98,0.00,,SKC,0.01,VWS V13.01,2013-02-04 17:16:00,
2013-02-04 09:18:00,38.9,38.4,30.16,South,184,0.0,1.0,98,0.00,,SKC,0.01,VWS V13.01,2013-02-04 17:18:00,
2013-02-04 09:20:00,39.0,38.5,30.16,South,184,0.0,1.0,98,0.00,,SKC,0.01,VWS V13.01,2013-02-04 17:20:00,
2013-02-04 09:21:00,39.1,38.6,30.16,South,184,0.0,1.0,98,0.00,,SKC,0.01,VWS V13.01,2013-02-04 17:21:00,
2013-02-04 09:23:00,39.2,38.9,30.16,South,184,0.0,1.0,99,0.00,,SKC,0.01,VWS V13.01,2013-02-04 17:23:00,
2013-02-04 09:25:00,39.3,38.8,30.16,South,184,0.0,1.0,98,0.00,,SKC,0.01,VWS V13.01,2013-02-04 17:25:00,
2013-02-04 09:26:00,39.4,38.9,30.16,South,184,1.0,2.0,98,0.00,,SKC,0.01,VWS V13.01,2013-02-04 17:26:00,
2013-02-04 09:28:00,39.5,39.0,30.16,South,184,0.0,2.0,98,0.00,,SKC,0.01,VWS V13.01,2013-02-04 17:28:00,
2013-02-04 09:31:00,39.7,39.2,30.16,South,184,0.0,0.0,98,0.00,,SKC,0.01,VWS V13.01,2013-02-04 17:31:00,
2013-02-04 09:32:00,39.8,39.3,30.16,South,184,0.0,0.0,98,0.00,,SKC,0.01,VWS V13.01,2013-02-04 17:32:00,
2013-02-04 09:35:00,40.0,39.5,30.15,South,184,0.0,0.0,98,0.00,,SKC,0.01,VWS V13.01,2013-02-04 17:35:00,
2013-02-04 09:37:00,40.1,39.6,30.15,South,184,0.0,0.0,98,0.00,,SKC,0.01,VWS V13.01,2013-02-04 17:37:00,
2013-02-04 09:38:00,40.2,39.7,30.16,South,184,0.0,0.0,98,0.00,,SKC,0.01,VWS V13.01,2013-02-04 17:38:00,
2013-02-04 09:40:00,40.3,39.8,30.16,South,184,0.0,0.0,98,0.00,,SKC,0.01,VWS V13.01,2013-02-04 17:40:00,
2013-02-04 09:45:00,40.6,40.1,30.16,South,184,0.0,0.0,98,0.00,,SKC,0.01,VWS V13.01,2013-02-04 17:45:00,
2013-02-04 09:47:00,40.7,40.2,30.17,South,184,0.0,0.0,98,0.00,,SKC,0.01,VWS V13.01,2013-02-04 17:47:00,
2013-02-04 09:50:00,40.8,40.3,30.16,South,184,0.0,0.0,98,0.00,,SKC,0.01,VWS V13.01,2013-02-04 17:50:00,
2013-02-04 09:51:00,40.9,40.4,30.16,South,184,0.0,0.0,98,0.00,,SKC,0.01,VWS V13.01,2013-02-04 17:51:00,
2013-02-04 09:53:00,41.0,40.5,30.16,South,184,0.0,0.0,98,0.00,,SKC,0.01,VWS V13.01,2013-02-04 17:53:00,
2013-02-04 09:55:00,41.1,40.6,30.16,South,184,0.0,0.0,98,0.00,,SKC,0.01,VWS V13.01,2013-02-04 17:55:00,
2013-02-04 09:57:00,41.3,40.8,30.16,South,184,0.0,0.0,98,0.00,,SKC,0.01,VWS V13.01,2013-02-04 17:57:00,
2013-02-04 09:58:00,41.3,40.8,30.16,South,184,0.0,0.0,98,0.00,,SKC,0.01,VWS V13.01,2013-02-04 17:58:00,
2013-02-04 10:03:00,41.5,40.7,30.16,South,184,0.0,0.0,97,0.00,,SKC,0.01,VWS V13.01,2013-02-04 18:03:00,
2013-02-04 10:04:00,41.5,40.7,30.16,South,184,0.0,0.0,97,0.00,,SKC,0.01,VWS V13.01,2013-02-04 18:04:00,
2013-02-04 10:05:00,41.6,40.8,30.16,South,184,0.0,0.0,97,0.00,,SKC,0.01,VWS V13.01,2013-02-04 18:05:00,
2013-02-04 10:08:00,41.7,40.9,30.16,South,184,0.0,0.0,97,0.00,,SKC,0.01,VWS V13.01,2013-02-04 18:08:00,
2013-02-04 10:09:00,41.8,41.0,30.16,South,184,0.0,0.0,97,0.00,,SKC,0.01,VWS V13.01,2013-02-04 18:09:00,
2013-02-04 10:10:00,41.8,41.0,30.16,South,184,0.0,0.0,97,0.00,,SKC,0.01,VWS V13.01,2013-02-04 18:10:00,
2013-02-04 10:12:00,41.9,41.1,30.16,South,184,0.0,0.0,97,0.00,,SKC,0.01,VWS V13.01,2013-02-04 18:12:00,
2013-02-04 10:14:00,42.0,41.2,30.16,South,184,0.0,0.0,97,0.00,,SKC,0.01,VWS V13.01,2013-02-04 18:14:00,
2013-02-04 10:15:00,42.1,41.3,30.16,South,184,0.0,0.0,97,0.00,,SKC,0.01,VWS V13.01,2013-02-04 18:15:00,
2013-02-04 10:18:00,42.2,41.4,30.16,South,184,0.0,0.0,97,0.00,,SKC,0.01,VWS V13.01,2013-02-04 18:18:00,
2013-02-04 10:19:00,42.3,41.5,30.16,South,184,0.0,0.0,97,0.00,,SKC,0.01,VWS V13.01,2013-02-04 18:19:00,
2013-02-04 10:22:00,42.5,41.7,30.16,South,184,0.0,0.0,97,0.00,,SKC,0.01,VWS V13.01,2013-02-04 18:22:00,
2013-02-04 10:23:00,42.7,41.9,30.16,South,184,0.0,0.0,97,0.00,,SKC,0.01,VWS V13.01,2013-02-04 18:23:00,
2013-02-04 10:24:00,42.8,42.0,30.16,South,184,0.0,0.0,97,0.00,,SKC,0.01,VWS V13.01,2013-02-04 18:24:00,
2013-02-04 10:26:00,43.0,42.2,30.16,South,184,0.0,0.0,97,0.00,,SKC,0.01,VWS V13.01,2013-02-04 18:26:00,
2013-02-04 10:29:00,43.2,42.1,30.16,South,184,0.0,0.0,96,0.00,,SKC,0.01,VWS V13.01,2013-02-04 18:29:00,
2013-02-04 10:30:00,43.3,42.0,30.16,South,184,0.0,0.0,95,0.00,,SKC,0.01,VWS V13.01,2013-02-04 18:30:00,
2013-02-04 10:32:00,43.4,42.1,30.16,South,184,0.0,0.0,95,0.00,,SKC,0.01,VWS V13.01,2013-02-04 18:32:00,
2013-02-04 10:34:00,43.6,42.3,30.16,South,184,0.0,0.0,95,0.00,,SKC,0.01,VWS V13.01,2013-02-04 18:34:00,
2013-02-04 10:36:00,43.8,42.2,30.16,South,184,0.0,1.0,94,0.00,,SKC,0.01,VWS V13.01,2013-02-04 18:36:00,
2013-02-04 10:38:00,44.0,42.1,30.16,ESE,103,1.0,1.0,93,0.00,,SKC,0.01,VWS V13.01,2013-02-04 18:38:00,
2013-02-04 10:39:00,44.1,42.2,30.16,ESE,103,0.0,1.0,93,0.00,,SKC,0.01,VWS V13.01,2013-02-04 18:39:00,
2013-02-04 10:41:00,44.4,42.2,30.16,East,91,1.0,2.0,92,0.00,,SKC,0.01,VWS V13.01,2013-02-04 18:41:00,
2013-02-04 10:42:00,44.5,42.3,30.16,East,91,0.0,2.0,92,0.00,,SKC,0.01,VWS V13.01,2013-02-04 18:42:00,
2013-02-04 10:45:00,44.9,42.7,30.16,ESE,109,0.0,2.0,92,0.00,,SKC,0.01,VWS V13.01,2013-02-04 18:45:00,
2013-02-04 10:48:00,45.3,42.8,30.16,ESE,111,0.0,2.0,91,0.00,,SKC,0.01,VWS V13.01,2013-02-04 18:48:00,
2013-02-04 10:49:00,45.5,43.3,30.16,ESE,111,0.0,2.0,92,0.00,,SKC,0.01,VWS V13.01,2013-02-04 18:49:00,
2013-02-04 10:52:00,45.9,43.4,30.16,ESE,111,0.0,2.0,91,0.00,,SKC,0.01,VWS V13.01,2013-02-04 18:52:00,
2013-02-04 10:54:00,46.1,43.3,30.16,ESE,113,0.0,2.0,90,0.00,,SKC,0.01,VWS V13.01,2013-02-04 18:54:00,
2013-02-04 10:55:00,46.1,43.3,30.16,ESE,113,0.0,2.0,90,0.00,,SKC,0.01,VWS V13.01,2013-02-04 18:55:00,
2013-02-04 10:58:00,46.4,43.6,30.16,East,96,0.0,2.0,90,0.00,,SKC,0.01,VWS V13.01,2013-02-04 18:58:00,
2013-02-04 11:00:00,46.6,44.1,30.16,East,96,0.0,0.0,91,0.00,,SKC,0.01,VWS V13.01,2013-02-04 19:00:00,
2013-02-04 11:02:00,46.7,43.9,30.16,East,82,0.0,1.0,90,0.00,,SKC,0.01,VWS V13.01,2013-02-04 19:02:00,
2013-02-04 11:03:00,46.8,44.0,30.16,East,82,0.0,1.0,90,0.00,,SKC,0.01,VWS V13.01,2013-02-04 19:03:00,
2013-02-04 11:05:00,46.8,44.0,30.16,East,82,0.0,1.0,90,0.00,,SKC,0.01,VWS V13.01,2013-02-04 19:05:00,
2013-02-04 11:06:00,46.9,44.1,30.16,East,82,0.0,1.0,90,0.00,,SKC,0.01,VWS V13.01,2013-02-04 19:06:00,
2013-02-04 11:08:00,46.9,44.1,30.16,East,82,0.0,1.0,90,0.00,,SKC,0.01,VWS V13.01,2013-02-04 19:08:00,
2013-02-04 11:09:00,46.9,44.1,30.16,East,82,1.0,1.0,90,0.00,,SKC,0.01,VWS V13.01,2013-02-04 19:09:00,
2013-02-04 11:11:00,46.9,44.1,30.17,NNW,342,0.0,2.0,90,0.00,,SKC,0.01,VWS V13.01,2013-02-04 19:11:00,
2013-02-04 11:14:00,46.9,44.1,30.16,North,349,1.0,2.0,90,0.00,,SKC,0.01,VWS V13.01,2013-02-04 19:14:00,
2013-02-04 11:16:00,46.9,43.5,30.16,North,349,0.0,2.0,88,0.00,,SKC,0.01,VWS V13.01,2013-02-04 19:16:00,
2013-02-04 11:17:00,46.8,43.4,30.16,North,349,0.0,2.0,88,0.00,,SKC,0.01,VWS V13.01,2013-02-04 19:17:00,
2013-02-04 11:19:00,46.8,44.0,30.16,North,349,0.0,2.0,90,0.00,,SKC,0.01,VWS V13.01,2013-02-04 19:19:00,
2013-02-04 11:20:00,46.8,44.3,30.16,North,349,0.0,2.0,91,0.00,,SKC,0.01,VWS V13.01,2013-02-04 19:20:00,
2013-02-04 11:25:00,46.8,44.0,30.16,ENE,74,0.0,2.0,90,0.00,,SKC,0.01,VWS V13.01,2013-02-04 19:25:00,
2013-02-04 11:27:00,46.9,44.1,30.16,ENE,74,0.0,2.0,90,0.00,,SKC,0.01,VWS V13.01,2013-02-04 19:27:00,
2013-02-04 11:29:00,46.9,44.1,30.16,ENE,74,0.0,2.0,90,0.00,,SKC,0.01,VWS V13.01,2013-02-04 19:29:00,
2013-02-04 11:31:00,46.9,44.1,30.16,NE,36,0.0,0.0,90,0.00,,SKC,0.01,VWS V13.01,2013-02-04 19:31:00,
2013-02-04 11:32:00,46.9,43.8,30.16,NE,36,0.0,0.0,89,0.00,,SKC,0.01,VWS V13.01,2013-02-04 19:32:00,
2013-02-04 11:35:00,46.9,44.1,30.16,NE,36,0.0,1.0,90,0.00,,SKC,0.01,VWS V13.01,2013-02-04 19:35:00,
2013-02-04 11:37:00,46.9,44.1,30.16,NNW,333,0.0,1.0,90,0.00,,SKC,0.01,VWS V13.01,2013-02-04 19:37:00,
2013-02-04 11:40:00,46.8,43.7,30.16,NW,311,0.0,2.0,89,0.00,,SKC,0.01,VWS V13.01,2013-02-04 19:40:00,
2013-02-04 11:41:00,46.7,43.9,30.16,NW,311,0.0,2.0,90,0.00,,SKC,0.01,VWS V13.01,2013-02-04 19:41:00,
2013-02-04 11:42:00,46.7,43.9,30.16,NW,311,0.0,2.0,90,0.00,,SKC,0.01,VWS V13.01,2013-02-04 19:42:00,
2013-02-04 11:44:00,46.6,43.8,30.16,NW,311,0.0,2.0,90,0.00,,SKC,0.01,VWS V13.01,2013-02-04 19:44:00,
2013-02-04 11:48:00,46.6,44.1,30.16,NNE,28,0.0,2.0,91,0.00,,SKC,0.01,VWS V13.01,2013-02-04 19:48:00,
2013-02-04 11:50:00,46.5,43.7,30.15,NNE,28,0.0,2.0,90,0.00,,SKC,0.01,VWS V13.01,2013-02-04 19:50:00,
2013-02-04 11:51:00,46.5,44.0,30.15,NNE,28,0.0,2.0,91,0.00,,SKC,0.01,VWS V13.01,2013-02-04 19:51:00,
2013-02-04 11:53:00,46.5,44.0,30.15,NNE,27,0.0,2.0,91,0.00,,SKC,0.01,VWS V13.01,2013-02-04 19:53:00,
2013-02-04 11:57:00,46.6,43.8,30.15,NNE,27,0.0,2.0,90,0.00,,SKC,0.01,VWS V13.01,2013-02-04 19:57:00,
2013-02-04 11:59:00,46.6,43.5,30.15,NNE,27,0.0,2.0,89,0.00,,SKC,0.01,VWS V13.01,2013-02-04 19:59:00,
2013-02-04 12:00:00,46.6,43.8,30.15,NNE,27,0.0,2.0,90,0.00,,SKC,0.01,VWS V13.01,2013-02-04 20:00:00,
2013-02-04 12:01:00,46.6,43.8,30.15,NNE,27,0.0,0.0,90,0.00,,SKC,0.01,VWS V13.01,2013-02-04 20:01:00,
2013-02-04 12:05:00,46.7,43.9,30.14,NNE,27,0.0,0.0,90,0.00,,SKC,0.01,VWS V13.01,2013-02-04 20:05:00,
2013-02-04 12:07:00,46.7,43.9,30.14,NNE,27,0.0,0.0,90,0.00,,SKC,0.01,VWS V13.01,2013-02-04 20:07:00,
2013-02-04 12:08:00,46.7,43.9,30.14,NNE,27,0.0,0.0,90,0.00,,SKC,0.01,VWS V13.01,2013-02-04 20:08:00,
2013-02-04 12:11:00,46.7,43.9,30.14,NE,42,0.0,1.0,90,0.00,,SKC,0.01,VWS V13.01,2013-02-04 20:11:00,
2013-02-04 12:12:00,46.7,43.9,30.14,NE,42,0.0,1.0,90,0.00,,SKC,0.01,VWS V13.01,2013-02-04 20:12:00,
2013-02-04 12:15:00,46.7,43.9,30.14,NE,42,0.0,1.0,90,0.00,,SKC,0.01,VWS V13.01,2013-02-04 20:15:00,
2013-02-04 12:18:00,46.6,43.5,30.14,NE,49,0.0,2.0,89,0.00,,SKC,0.01,VWS V13.01,2013-02-04 20:18:00,
2013-02-04 12:19:00,46.6,43.5,30.14,NE,49,0.0,2.0,89,0.00,,SKC,0.01,VWS V13.01,2013-02-04 20:19:00,
2013-02-04 12:20:00,46.6,43.8,30.14,NE,55,2.0,2.0,90,0.00,,SKC,0.01,VWS V13.01,2013-02-04 20:20:00,
2013-02-04 12:24:00,46.6,43.8,30.14,NE,55,0.0,2.0,90,0.00,,SKC,0.01,VWS V13.01,2013-02-04 20:24:00,
2013-02-04 12:25:00,46.6,43.8,30.14,NE,55,0.0,2.0,90,0.00,,SKC,0.01,VWS V13.01,2013-02-04 20:25:00,
2013-02-04 12:29:00,46.6,43.8,30.14,NE,55,0.0,2.0,90,0.00,,SKC,0.01,VWS V13.01,2013-02-04 20:29:00,
2013-02-04 12:32:00,46.7,43.9,30.13,NE,55,1.0,1.0,90,0.00,,SKC,0.01,VWS V13.01,2013-02-04 20:32:00,
2013-02-04 12:33:00,46.6,43.5,30.13,NE,55,0.0,1.0,89,0.00,,SKC,0.01,VWS V13.01,2013-02-04 20:33:00,
2013-02-04 12:37:00,46.5,43.7,30.13,NE,47,0.0,2.0,90,0.00,,SKC,0.01,VWS V13.01,2013-02-04 20:37:00,
2013-02-04 12:38:00,46.5,43.7,30.13,NE,44,1.0,2.0,90,0.00,,SKC,0.01,VWS V13.01,2013-02-04 20:38:00,
2013-02-04 12:41:00,46.5,43.7,30.13,NE,44,0.0,2.0,90,0.00,,SKC,0.01,VWS V13.01,2013-02-04 20:41:00,
2013-02-04 12:42:00,46.5,43.7,30.13,NE,44,0.0,2.0,90,0.00,,SKC,0.01,VWS V13.01,2013-02-04 20:42:00,
2013-02-04 12:45:00,46.5,43.7,30.13,NE,44,0.0,2.0,90,0.00,,SKC,0.01,VWS V13.01,2013-02-04 20:45:00,
2013-02-04 12:46:00,46.4,43.6,30.13,NE,44,0.0,2.0,90,0.00,,SKC,0.01,VWS V13.01,2013-02-04 20:46:00,
2013-02-04 12:49:00,46.5,43.7,30.13,NE,47,1.0,2.0,90,0.00,,SKC,0.01,VWS V13.01,2013-02-04 20:49:00,
2013-02-04 12:52:00,46.5,44.0,30.12,NE,47,0.0,2.0,91,0.00,,SKC,0.01,VWS V13.01,2013-02-04 20:52:00,
2013-02-04 12:53:00,46.5,44.0,30.12,NE,47,0.0,2.0,91,0.00,,SKC,0.01,VWS V13.01,2013-02-04 20:53:00,
2013-02-04 12:54:00,46.5,44.0,30.12,NE,47,0.0,2.0,91,0.00,,SKC,0.01,VWS V13.01,2013-02-04 20:54:00,
2013-02-04 12:58:00,46.5,43.4,30.12,NE,47,0.0,2.0,89,0.00,,SKC,0.01,VWS V13.01,2013-02-04 20:58:00,
2013-02-04 12:59:00,46.5,43.4,30.12,NE,46,2.0,2.0,89,0.00,,SKC,0.01,VWS V13.01,2013-02-04 20:59:00,
2013-02-04 13:00:00,46.5,43.4,30.12,NE,46,0.0,2.0,89,0.00,,SKC,0.01,VWS V13.01,2013-02-04 21:00:00,
2013-02-04 13:01:00,46.5,43.4,30.12,NE,46,0.0,0.0,89,0.00,,SKC,0.01,VWS V13.01,2013-02-04 21:01:00,
2013-02-04 13:06:00,46.5,43.7,30.11,NE,38,0.0,3.0,90,0.00,,SKC,0.01,VWS V13.01,2013-02-04 21:06:00,
2013-02-04 13:07:00,46.5,43.7,30.11,NE,39,0.0,3.0,90,0.00,,SKC,0.01,VWS V13.01,2013-02-04 21:07:00,
2013-02-04 13:08:00,46.5,43.7,30.11,NE,39,0.0,3.0,90,0.00,,SKC,0.01,VWS V13.01,2013-02-04 21:08:00,
2013-02-04 13:10:00,46.5,43.7,30.11,NE,39,0.0,3.0,90,0.00,,SKC,0.01,VWS V13.01,2013-02-04 21:10:00,
2013-02-04 13:12:00,46.6,44.1,30.11,NE,38,0.0,3.0,91,0.00,,SKC,0.01,VWS V13.01,2013-02-04 21:12:00,
2013-02-04 13:13:00,46.7,43.9,30.11,NE,38,0.0,3.0,90,0.00,,SKC,0.01,VWS V13.01,2013-02-04 21:13:00,
2013-02-04 13:15:00,46.7,43.9,30.11,NE,42,0.0,3.0,90,0.00,,SKC,0.01,VWS V13.01,2013-02-04 21:15:00,
2013-02-04 13:16:00,46.8,44.0,30.11,North,355,0.0,3.0,90,0.00,,SKC,0.01,VWS V13.01,2013-02-04 21:16:00,
2013-02-04 13:19:00,46.8,43.4,30.11,North,355,0.0,3.0,88,0.00,,SKC,0.01,VWS V13.01,2013-02-04 21:19:00,
2013-02-04 13:23:00,46.8,44.0,30.11,NNW,344,0.0,3.0,90,0.00,,SKC,0.01,VWS V13.01,2013-02-04 21:23:00,
2013-02-04 13:24:00,46.8,43.7,30.11,NNW,344,0.0,3.0,89,0.00,,SKC,0.01,VWS V13.01,2013-02-04 21:24:00,
2013-02-04 13:28:00,46.8,43.7,30.10,NNW,344,0.0,3.0,89,0.00,,SKC,0.01,VWS V13.01,2013-02-04 21:28:00,
2013-02-04 13:29:00,46.8,43.7,30.10,NNW,344,0.0,3.0,89,0.00,,SKC,0.01,VWS V13.01,2013-02-04 21:29:00,
2013-02-04 13:30:00,46.8,43.7,30.10,NNW,344,0.0,3.0,89,0.00,,SKC,0.01,VWS V13.01,2013-02-04 21:30:00,
2013-02-04 13:34:00,46.9,43.5,30.10,ENE,67,0.0,2.0,88,0.00,,SKC,0.01,VWS V13.01,2013-02-04 21:34:00,
2013-02-04 13:35:00,46.9,43.5,30.10,ENE,67,0.0,2.0,88,0.00,,SKC,0.01,VWS V13.01,2013-02-04 21:35:00,
2013-02-04 13:36:00,46.9,43.5,30.10,ENE,67,0.0,2.0,88,0.00,,SKC,0.01,VWS V13.01,2013-02-04 21:36:00,
2013-02-04 13:40:00,46.9,43.5,30.10,ENE,67,0.0,2.0,88,0.00,,SKC,0.01,VWS V13.01,2013-02-04 21:40:00,
2013-02-04 13:42:00,46.8,43.4,30.10,ENE,67,0.0,2.0,88,0.00,,SKC,0.01,VWS V13.01,2013-02-04 21:42:00,
2013-02-04 13:45:00,46.8,43.1,30.10,NNW,327,0.0,2.0,87,0.00,,SKC,0.01,VWS V13.01,2013-02-04 21:45:00,
2013-02-04 13:47:00,46.7,43.3,30.10,NNW,327,0.0,2.0,88,0.00,,SKC,0.01,VWS V13.01,2013-02-04 21:47:00,
2013-02-04 13:49:00,46.6,43.2,30.10,NNW,327,0.0,2.0,88,0.00,,SKC,0.01,VWS V13.01,2013-02-04 21:49:00,
2013-02-04 13:50:00,46.6,43.2,30.10,NNW,327,0.0,2.0,88,0.00,,SKC,0.01,VWS V13.01,2013-02-04 21:50:00,
2013-02-04 13:54:00,46.6,43.5,30.09,North,11,0.0,2.0,89,0.00,,SKC,0.01,VWS V13.01,2013-02-04 21:54:00,
2013-02-04 13:57:00,46.6,43.5,30.09,North,11,0.0,2.0,89,0.00,,SKC,0.01,VWS V13.01,2013-02-04 21:57:00,
2013-02-04 13:59:00,46.6,43.5,30.09,NW,316,0.0,2.0,89,0.00,,SKC,0.01,VWS V13.01,2013-02-04 21:59:00,
2013-02-04 14:00:00,46.6,43.2,30.09,NNW,343,0.0,0.0,88,0.00,,SKC,0.01,VWS V13.01,2013-02-04 22:00:00,
2013-02-04 14:01:00,46.6,43.2,30.09,NNW,343,0.0,0.0,88,0.00,,SKC,0.01,VWS V13.01,2013-02-04 22:01:00,
2013-02-04 14:03:00,46.6,43.2,30.09,NE,55,0.0,1.0,88,0.00,,SKC,0.01,VWS V13.01,2013-02-04 22:03:00,
2013-02-04 14:05:00,46.5,43.1,30.09,NE,40,1.0,2.0,88,0.00,,SKC,0.01,VWS V13.01,2013-02-04 22:05:00,
2013-02-04 14:07:00,46.4,43.0,30.09,NE,56,0.0,2.0,88,0.00,,SKC,0.01,VWS V13.01,2013-02-04 22:07:00,
2013-02-04 14:08:00,46.4,43.0,30.09,NE,56,0.0,2.0,88,0.00,,SKC,0.01,VWS V13.01,2013-02-04 22:08:00,
2013-02-04 14:12:00,46.3,43.2,30.09,NE,56,0.0,2.0,89,0.00,,SKC,0.01,VWS V13.01,2013-02-04 22:12:00,
2013-02-04 14:14:00,46.2,43.1,30.09,NE,56,0.0,2.0,89,0.00,,SKC,0.01,VWS V13.01,2013-02-04 22:14:00,
2013-02-04 14:15:00,46.2,43.1,30.09,NE,56,0.0,2.0,89,0.00,,SKC,0.01,VWS V13.01,2013-02-04 22:15:00,
2013-02-04 14:16:00,46.2,43.1,30.09,NE,56,0.0,2.0,89,0.00,,SKC,0.01,VWS V13.01,2013-02-04 22:16:00,
2013-02-04 14:20:00,46.1,43.0,30.09,NE,36,0.0,3.0,89,0.00,,SKC,0.01,VWS V13.01,2013-02-04 22:20:00,
2013-02-04 14:22:00,46.1,43.3,30.08,NE,36,0.0,3.0,90,0.00,,SKC,0.01,VWS V13.01,2013-02-04 22:22:00,
2013-02-04 14:24:00,46.1,43.3,30.08,NE,36,0.0,3.0,90,0.00,,SKC,0.01,VWS V13.01,2013-02-04 22:24:00,
2013-02-04 14:27:00,46.1,43.0,30.08,NNE,30,0.0,3.0,89,0.00,,SKC,0.01,VWS V13.01,2013-02-04 22:27:00,
2013-02-04 14:28:00,46.1,43.3,30.08,NNE,30,0.0,3.0,90,0.00,,SKC,0.01,VWS V13.01,2013-02-04 22:28:00,
2013-02-04 14:30:00,46.1,43.3,30.08,NE,36,0.0,3.0,90,0.00,,SKC,0.01,VWS V13.01,2013-02-04 22:30:00,
2013-02-04 14:31:00,46.1,43.3,30.08,NE,36,0.0,0.0,90,0.00,,SKC,0.01,VWS V13.01,2013-02-04 22:31:00,
2013-02-04 14:36:00,46.1,43.3,30.08,West,270,1.0,1.0,90,0.00,,SKC,0.01,VWS V13.01,2013-02-04 22:36:00,
2013-02-04 14:39:00,46.0,43.2,30.08,West,276,0.0,2.0,90,0.00,,SKC,0.01,VWS V13.01,2013-02-04 22:39:00,
2013-02-04 14:40:00,46.0,43.2,30.07,ENE,65,2.0,2.0,90,0.00,,SKC,0.01,VWS V13.01,2013-02-04 22:40:00,
2013-02-04 14:42:00,46.0,43.0,30.07,ENE,65,0.0,2.0,89,0.00,,SKC,0.01,VWS V13.01,2013-02-04 22:42:00,
2013-02-04 14:43:00,46.0,43.0,30.07,ENE,65,0.0,2.0,89,0.00,,SKC,0.01,VWS V13.01,2013-02-04 22:43:00,
2013-02-04 14:47:00,46.0,43.0,30.07,SW,234,1.0,2.0,89,0.00,,SKC,0.01,VWS V13.01,2013-02-04 22:47:00,
2013-02-04 14:48:00,46.0,43.0,30.07,SW,234,0.0,2.0,89,0.00,,SKC,0.01,VWS V13.01,2013-02-04 22:48:00,
2013-02-04 14:49:00,46.0,43.0,30.07,SW,234,0.0,2.0,89,0.00,,SKC,0.01,VWS V13.01,2013-02-04 22:49:00,
2013-02-04 14:50:00,46.0,43.0,30.07,SW,234,0.0,2.0,89,0.00,,SKC,0.01,VWS V13.01,2013-02-04 22:50:00,
2013-02-04 14:52:00,46.0,43.0,30.07,WSW,244,0.0,2.0,89,0.00,,SKC,0.01,VWS V13.01,2013-02-04 22:52:00,
2013-02-04 14:53:00,46.0,43.0,30.07,WSW,242,0.0,2.0,89,0.00,,SKC,0.01,VWS V13.01,2013-02-04 22:53:00,
2013-02-04 14:56:00,45.9,42.5,30.06,North,355,1.0,2.0,88,0.00,,SKC,0.01,VWS V13.01,2013-02-04 22:56:00,
2013-02-04 14:57:00,45.9,42.8,30.06,NNW,331,0.0,2.0,89,0.00,,SKC,0.01,VWS V13.01,2013-02-04 22:57:00,
2013-02-04 14:59:00,45.9,42.8,30.07,NNW,331,0.0,2.0,89,0.00,,SKC,0.01,VWS V13.01,2013-02-04 22:59:00,
2013-02-04 15:00:00,45.9,42.8,30.06,NNW,331,0.0,2.0,89,0.00,,SKC,0.01,VWS V13.01,2013-02-04 23:00:00,
2013-02-04 15:02:00,45.9,42.8,30.06,NNW,331,0.0,0.0,89,0.00,,SKC,0.01,VWS V13.01,2013-02-04 23:02:00,
2013-02-04 15:05:00,45.8,42.8,30.06,NNW,331,0.0,0.0,89,0.00,,SKC,0.01,VWS V13.01,2013-02-04 23:05:00,
2013-02-04 15:06:00,45.8,42.8,30.06,NNW,331,0.0,0.0,89,0.00,,SKC,0.01,VWS V13.01,2013-02-04 23:06:00,
2013-02-04 15:08:00,45.8,42.8,30.06,NNW,331,0.0,0.0,89,0.00,,SKC,0.01,VWS V13.01,2013-02-04 23:08:00,
2013-02-04 15:09:00,45.8,42.8,30.06,NNW,331,0.0,0.0,89,0.00,,SKC,0.01,VWS V13.01,2013-02-04 23:09:00,
2013-02-04 15:10:00,45.8,43.0,30.06,NNW,331,0.0,0.0,90,0.00,,SKC,0.01,VWS V13.01,2013-02-04 23:10:00,
2013-02-04 15:13:00,45.8,42.8,30.06,NNW,331,0.0,0.0,89,0.00,,SKC,0.01,VWS V13.01,2013-02-04 23:13:00,
2013-02-04 15:15:00,45.8,42.8,30.06,NNW,331,0.0,0.0,89,0.00,,SKC,0.01,VWS V13.01,2013-02-04 23:15:00,
2013-02-04 15:16:00,45.8,42.8,30.06,NNW,331,0.0,0.0,89,0.00,,SKC,0.01,VWS V13.01,2013-02-04 23:16:00,
2013-02-04 15:17:00,45.8,42.8,30.06,NNW,331,0.0,0.0,89,0.00,,SKC,0.01,VWS V13.01,2013-02-04 23:17:00,
2013-02-04 15:18:00,45.8,42.8,30.06,NNE,13,1.0,1.0,89,0.00,,SKC,0.01,VWS V13.01,2013-02-04 23:18:00,
2013-02-04 15:21:00,45.7,42.7,30.06,NNE,15,0.0,1.0,89,0.00,,SKC,0.01,VWS V13.01,2013-02-04 23:21:00,
2013-02-04 15:24:00,45.7,42.7,30.06,NNE,15,0.0,1.0,89,0.00,,SKC,0.01,VWS V13.01,2013-02-04 23:24:00,
2013-02-04 15:25:00,45.7,42.7,30.06,NNE,15,0.0,1.0,89,0.00,,SKC,0.01,VWS V13.01,2013-02-04 23:25:00,
2013-02-04 15:26:00,45.7,42.7,30.06,NNE,15,0.0,1.0,89,0.00,,SKC,0.01,VWS V13.01,2013-02-04 23:26:00,
2013-02-04 15:28:00,45.6,42.5,30.06,NNE,15,0.0,1.0,89,0.00,,SKC,0.01,VWS V13.01,2013-02-04 23:28:00,
2013-02-04 15:30:00,45.6,42.5,30.06,NNE,15,0.0,1.0,89,0.00,,SKC,0.01,VWS V13.01,2013-02-04 23:30:00,
2013-02-04 15:33:00,45.6,42.8,30.06,NNE,15,0.0,0.0,90,0.00,,SKC,0.01,VWS V13.01,2013-02-04 23:33:00,
2013-02-04 15:35:00,45.6,42.8,30.06,NNE,15,0.0,0.0,90,0.00,,SKC,0.01,VWS V13.01,2013-02-04 23:35:00,
2013-02-04 15:36:00,45.6,42.5,30.06,NNE,15,0.0,0.0,89,0.00,,SKC,0.01,VWS V13.01,2013-02-04 23:36:00,
2013-02-04 15:38:00,45.6,42.8,30.06,NNE,15,0.0,0.0,90,0.00,,SKC,0.01,VWS V13.01,2013-02-04 23:38:00,
2013-02-04 15:41:00,45.6,42.5,30.06,North,10,0.0,0.0,89,0.00,,SKC,0.01,VWS V13.01,2013-02-04 23:41:00,
2013-02-04 15:42:00,45.6,42.8,30.06,North,10,0.0,0.0,90,0.00,,SKC,0.01,VWS V13.01,2013-02-04 23:42:00,
2013-02-04 15:45:00,45.5,42.7,30.06,North,10,0.0,0.0,90,0.00,,SKC,0.01,VWS V13.01,2013-02-04 23:45:00,
2013-02-04 15:48:00,45.5,42.5,30.06,North,10,0.0,0.0,89,0.00,,SKC,0.01,VWS V13.01,2013-02-04 23:48:00,
2013-02-04 15:51:00,45.5,42.7,30.06,North,10,0.0,0.0,90,0.00,,SKC,0.01,VWS V13.01,2013-02-04 23:51:00,
2013-02-04 15:52:00,45.6,42.8,30.06,North,10,0.0,0.0,90,0.00,,SKC,0.01,VWS V13.01,2013-02-04 23:52:00,
2013-02-04 15:53:00,45.6,42.8,30.06,North,10,0.0,0.0,90,0.00,,SKC,0.01,VWS V13.01,2013-02-04 23:53:00,
2013-02-04 15:57:00,45.6,42.8,30.06,North,10,0.0,0.0,90,0.00,,SKC,0.01,VWS V13.01,2013-02-04 23:57:00,
2013-02-04 15:58:00,45.6,42.8,30.06,North,10,0.0,0.0,90,0.00,,SKC,0.01,VWS V13.01,2013-02-04 23:58:00,
2013-02-04 15:59:00,45.6,42.8,30.06,North,10,0.0,0.0,90,0.00,,SKC,0.01,VWS V13.01,2013-02-04 23:59:00,
2013-02-04 16:03:00,45.6,42.8,30.06,North,10,0.0,0.0,90,0.00,,SKC,0.01,VWS V13.01,2013-02-05 00:03:00,
2013-02-04 16:06:00,45.6,42.8,30.05,North,10,0.0,0.0,90,0.00,,SKC,0.01,VWS V13.01,2013-02-05 00:06:00,
2013-02-04 16:07:00,45.5,42.5,30.05,North,10,0.0,0.0,89,0.00,,SKC,0.01,VWS V13.01,2013-02-05 00:07:00,
2013-02-04 16:08:00,45.6,42.5,30.05,North,10,0.0,0.0,89,0.00,,SKC,0.01,VWS V13.01,2013-02-05 00:08:00,
2013-02-04 16:13:00,45.5,42.5,30.05,North,10,0.0,0.0,89,0.00,,SKC,0.01,VWS V13.01,2013-02-05 00:13:00,
2013-02-04 16:15:00,45.5,42.5,30.05,North,10,0.0,0.0,89,0.00,,SKC,0.01,VWS V13.01,2013-02-05 00:15:00,
2013-02-04 16:16:00,45.5,42.5,30.05,North,10,0.0,0.0,89,0.00,,SKC,0.01,VWS V13.01,2013-02-05 00:16:00,
2013-02-04 16:18:00,45.5,42.5,30.05,North,10,0.0,0.0,89,0.00,,SKC,0.01,VWS V13.01,2013-02-05 00:18:00,
2013-02-04 16:21:00,45.5,42.5,30.05,North,10,0.0,0.0,89,0.00,,SKC,0.01,VWS V13.01,2013-02-05 00:21:00,
2013-02-04 16:22:00,45.5,42.5,30.04,North,10,0.0,0.0,89,0.00,,SKC,0.01,VWS V13.01,2013-02-05 00:22:00,
2013-02-04 16:24:00,45.5,42.7,30.04,North,10,0.0,0.0,90,0.00,,SKC,0.01,VWS V13.01,2013-02-05 00:24:00,
2013-02-04 16:26:00,45.5,42.7,30.04,North,10,0.0,0.0,90,0.00,,SKC,0.01,VWS V13.01,2013-02-05 00:26:00,
2013-02-04 16:27:00,45.5,42.7,30.04,North,10,0.0,0.0,90,0.00,,SKC,0.01,VWS V13.01,2013-02-05 00:27:00,
2013-02-04 16:29:00,45.4,42.3,30.05,North,10,0.0,0.0,89,0.00,,SKC,0.01,VWS V13.01,2013-02-05 00:29:00,
2013-02-04 16:30:00,45.4,42.3,30.05,North,10,0.0,0.0,89,0.00,,SKC,0.01,VWS V13.01,2013-02-05 00:30:00,
2013-02-04 16:33:00,45.4,42.3,30.04,North,10,0.0,0.0,89,0.00,,SKC,0.01,VWS V13.01,2013-02-05 00:33:00,
2013-02-04 16:35:00,45.4,42.3,30.04,North,10,0.0,0.0,89,0.00,,SKC,0.01,VWS V13.01,2013-02-05 00:35:00,
2013-02-04 16:36:00,45.3,42.3,30.04,North,10,0.0,0.0,89,0.00,,SKC,0.01,VWS V13.01,2013-02-05 00:36:00,
2013-02-04 16:37:00,45.3,42.5,30.04,North,10,0.0,0.0,90,0.00,,SKC,0.01,VWS V13.01,2013-02-05 00:37:00,
2013-02-04 16:40:00,45.3,42.5,30.04,North,10,0.0,0.0,90,0.00,,SKC,0.01,VWS V13.01,2013-02-05 00:40:00,
2013-02-04 16:41:00,45.3,42.5,30.04,North,10,0.0,0.0,90,0.00,,SKC,0.01,VWS V13.01,2013-02-05 00:41:00,
2013-02-04 16:43:00,45.3,42.5,30.04,North,10,0.0,0.0,90,0.00,,SKC,0.01,VWS V13.01,2013-02-05 00:43:00,
2013-02-04 16:44:00,45.3,42.5,30.04,North,10,0.0,0.0,90,0.00,,SKC,0.01,VWS V13.01,2013-02-05 00:44:00,
2013-02-04 16:46:00,45.2,42.7,30.04,North,10,0.0,0.0,91,0.00,,SKC,0.01,VWS V13.01,2013-02-05 00:46:00,
2013-02-04 16:47:00,45.2,42.7,30.04,North,10,0.0,0.0,91,0.00,,SKC,0.01,VWS V13.01,2013-02-05 00:47:00,
2013-02-04 16:51:00,45.2,42.7,30.04,North,10,0.0,0.0,91,0.00,,SKC,0.01,VWS V13.01,2013-02-05 00:51:00,
2013-02-04 16:52:00,45.1,42.6,30.04,North,10,0.0,0.0,91,0.00,,SKC,0.01,VWS V13.01,2013-02-05 00:52:00,
2013-02-04 16:53:00,45.1,42.3,30.04,North,10,0.0,0.0,90,0.00,,SKC,0.01,VWS V13.01,2013-02-05 00:53:00,
2013-02-04 16:55:00,45.1,42.3,30.03,North,10,0.0,0.0,90,0.00,,SKC,0.01,VWS V13.01,2013-02-05 00:55:00,
2013-02-04 16:58:00,45.1,42.3,30.03,North,10,0.0,0.0,90,0.00,,SKC,0.01,VWS V13.01,2013-02-05 00:58:00,
2013-02-04 16:59:00,45.1,42.6,30.03,North,10,0.0,0.0,91,0.00,,SKC,0.01,VWS V13.01,2013-02-05 00:59:00,
2013-02-04 17:01:00,45.0,42.5,30.03,North,10,0.0,0.0,91,0.00,,SKC,0.01,VWS V13.01,2013-02-05 01:01:00,
2013-02-04 17:03:00,45.0,42.5,30.03,North,10,0.0,0.0,91,0.00,,SKC,0.01,VWS V13.01,2013-02-05 01:03:00,
2013-02-04 17:04:00,45.0,42.5,30.03,North,10,0.0,0.0,91,0.00,,SKC,0.01,VWS V13.01,2013-02-05 01:04:00,
2013-02-04 17:05:00,45.0,42.5,30.03,North,10,0.0,0.0,91,0.00,,SKC,0.01,VWS V13.01,2013-02-05 01:05:00,
2013-02-04 17:09:00,44.9,42.4,30.03,North,10,0.0,0.0,91,0.00,,SKC,0.01,VWS V13.01,2013-02-05 01:09:00,
2013-02-04 17:12:00,44.9,42.4,30.03,North,10,0.0,0.0,91,0.00,,SKC,0.01,VWS V13.01,2013-02-05 01:12:00,
2013-02-04 17:14:00,44.9,42.4,30.03,North,10,0.0,0.0,91,0.00,,SKC,0.01,VWS V13.01,2013-02-05 01:14:00,
2013-02-04 17:18:00,44.8,42.3,30.03,North,10,0.0,0.0,91,0.00,,SKC,0.01,VWS V13.01,2013-02-05 01:18:00,
2013-02-04 17:19:00,44.8,42.3,30.03,North,10,0.0,0.0,91,0.00,,SKC,0.01,VWS V13.01,2013-02-05 01:19:00,
2013-02-04 17:21:00,44.7,42.2,30.03,North,10,0.0,0.0,91,0.00,,SKC,0.01,VWS V13.01,2013-02-05 01:21:00,
2013-02-04 17:23:00,44.7,42.2,30.03,North,10,0.0,0.0,91,0.00,,SKC,0.01,VWS V13.01,2013-02-05 01:23:00,
2013-02-04 17:26:00,44.7,42.2,30.02,North,10,0.0,0.0,91,0.00,,SKC,0.01,VWS V13.01,2013-02-05 01:26:00,
2013-02-04 17:27:00,44.7,42.2,30.02,North,10,0.0,0.0,91,0.00,,SKC,0.01,VWS V13.01,2013-02-05 01:27:00,
2013-02-04 17:29:00,44.7,42.5,30.02,North,10,0.0,0.0,92,0.00,,SKC,0.01,VWS V13.01,2013-02-05 01:29:00,
2013-02-04 17:31:00,44.6,42.4,30.02,North,10,0.0,0.0,92,0.00,,SKC,0.01,VWS V13.01,2013-02-05 01:31:00,
2013-02-04 17:32:00,44.6,42.4,30.02,North,10,0.0,0.0,92,0.00,,SKC,0.01,VWS V13.01,2013-02-05 01:32:00,
2013-02-04 17:36:00,44.6,42.4,30.02,North,10,0.0,0.0,92,0.00,,SKC,0.01,VWS V13.01,2013-02-05 01:36:00,
2013-02-04 17:38:00,44.5,42.3,30.01,North,10,0.0,0.0,92,0.00,,SKC,0.01,VWS V13.01,2013-02-05 01:38:00,
2013-02-04 17:39:00,44.5,42.3,30.01,North,10,0.0,0.0,92,0.00,,SKC,0.01,VWS V13.01,2013-02-05 01:39:00,
2013-02-04 17:42:00,44.5,42.3,30.01,North,10,0.0,0.0,92,0.00,,SKC,0.01,VWS V13.01,2013-02-05 01:42:00,
2013-02-04 17:44:00,44.4,42.2,30.01,North,10,0.0,0.0,92,0.00,,SKC,0.01,VWS V13.01,2013-02-05 01:44:00,
2013-02-04 17:45:00,44.5,42.3,30.01,North,10,0.0,0.0,92,0.00,,SKC,0.01,VWS V13.01,2013-02-05 01:45:00,
2013-02-04 17:47:00,44.4,42.2,30.01,North,10,0.0,0.0,92,0.00,,SKC,0.01,VWS V13.01,2013-02-05 01:47:00,
2013-02-04 17:50:00,44.4,42.2,30.01,North,10,0.0,0.0,92,0.00,,SKC,0.01,VWS V13.01,2013-02-05 01:50:00,
2013-02-04 17:52:00,44.3,42.1,30.00,North,10,0.0,0.0,92,0.00,,SKC,0.01,VWS V13.01,2013-02-05 01:52:00,
2013-02-04 17:53:00,44.3,42.1,30.00,North,10,0.0,0.0,92,0.00,,SKC,0.01,VWS V13.01,2013-02-05 01:53:00,
2013-02-04 17:56:00,44.3,42.1,30.00,North,10,0.0,0.0,92,0.00,,SKC,0.01,VWS V13.01,2013-02-05 01:56:00,
2013-02-04 17:58:00,44.2,42.3,30.00,North,10,0.0,0.0,93,0.00,,SKC,0.01,VWS V13.01,2013-02-05 01:58:00,
2013-02-04 17:59:00,44.2,42.3,30.00,North,10,0.0,0.0,93,0.00,,SKC,0.01,VWS V13.01,2013-02-05 01:59:00,
2013-02-04 18:01:00,44.2,42.3,30.00,North,10,0.0,0.0,93,0.00,,SKC,0.01,VWS V13.01,2013-02-05 02:01:00,
2013-02-04 18:03:00,44.2,42.3,30.00,North,10,0.0,0.0,93,0.00,,SKC,0.01,VWS V13.01,2013-02-05 02:03:00,
2013-02-04 18:06:00,44.1,42.2,30.00,North,10,0.0,0.0,93,0.00,,SKC,0.01,VWS V13.01,2013-02-05 02:06:00,
2013-02-04 18:08:00,44.1,42.2,30.00,North,10,0.0,0.0,93,0.00,,SKC,0.01,VWS V13.01,2013-02-05 02:08:00,
2013-02-04 18:10:00,44.1,42.2,30.00,North,10,0.0,0.0,93,0.00,,SKC,0.01,VWS V13.01,2013-02-05 02:10:00,
2013-02-04 18:12:00,44.1,42.2,30.00,North,10,0.0,0.0,93,0.00,,SKC,0.01,VWS V13.01,2013-02-05 02:12:00,
2013-02-04 18:13:00,44.1,42.2,30.00,North,10,0.0,0.0,93,0.00,,SKC,0.01,VWS V13.01,2013-02-05 02:13:00,
2013-02-04 18:16:00,44.0,42.1,30.00,North,10,0.0,0.0,93,0.00,,SKC,0.01,VWS V13.01,2013-02-05 02:16:00,
2013-02-04 18:17:00,44.1,42.2,30.00,North,10,0.0,0.0,93,0.00,,SKC,0.01,VWS V13.01,2013-02-05 02:17:00,
2013-02-04 18:18:00,44.1,42.2,30.00,North,10,0.0,0.0,93,0.00,,SKC,0.01,VWS V13.01,2013-02-05 02:18:00,
2013-02-04 18:22:00,44.0,42.4,30.00,North,10,0.0,0.0,94,0.00,,SKC,0.01,VWS V13.01,2013-02-05 02:22:00,
2013-02-04 18:23:00,44.0,42.4,30.00,North,10,0.0,0.0,94,0.00,,SKC,0.01,VWS V13.01,2013-02-05 02:23:00,
2013-02-04 18:24:00,44.0,42.4,30.00,North,10,0.0,0.0,94,0.00,,SKC,0.01,VWS V13.01,2013-02-05 02:24:00,
2013-02-04 18:27:00,43.9,42.3,30.00,North,10,0.0,0.0,94,0.00,,SKC,0.01,VWS V13.01,2013-02-05 02:27:00,
2013-02-04 18:29:00,43.9,42.3,29.99,North,10,0.0,0.0,94,0.00,,SKC,0.01,VWS V13.01,2013-02-05 02:29:00,
2013-02-04 18:30:00,43.8,42.2,29.99,North,10,0.0,0.0,94,0.00,,SKC,0.01,VWS V13.01,2013-02-05 02:30:00,
2013-02-04 18:34:00,43.8,42.2,29.99,North,10,0.0,0.0,94,0.00,,SKC,0.01,VWS V13.01,2013-02-05 02:34:00,
2013-02-04 18:35:00,43.8,42.2,29.99,North,10,0.0,0.0,94,0.00,,SKC,0.01,VWS V13.01,2013-02-05 02:35:00,
2013-02-04 18:36:00,43.8,41.9,29.99,North,10,0.0,0.0,93,0.00,,SKC,0.01,VWS V13.01,2013-02-05 02:36:00,
2013-02-04 18:38:00,43.8,41.9,29.99,North,10,0.0,0.0,93,0.00,,SKC,0.01,VWS V13.01,2013-02-05 02:38:00,
2013-02-04 18:42:00,43.8,41.9,29.98,North,10,0.0,0.0,93,0.00,,SKC,0.01,VWS V13.01,2013-02-05 02:42:00,
2013-02-04 18:44:00,43.8,41.9,29.98,North,10,0.0,0.0,93,0.00,,SKC,0.01,VWS V13.01,2013-02-05 02:44:00,
2013-02-04 18:45:00,43.8,41.9,29.98,North,10,0.0,0.0,93,0.00,,SKC,0.01,VWS V13.01,2013-02-05 02:45:00,
2013-02-04 18:46:00,43.8,41.9,29.98,North,10,0.0,0.0,93,0.00,,SKC,0.01,VWS V13.01,2013-02-05 02:46:00,
2013-02-04 18:47:00,43.8,41.9,29.98,North,10,0.0,0.0,93,0.00,,SKC,0.01,VWS V13.01,2013-02-05 02:47:00,
2013-02-04 18:49:00,43.8,42.2,29.98,North,10,0.0,0.0,94,0.00,,SKC,0.01,VWS V13.01,2013-02-05 02:49:00,
2013-02-04 18:50:00,43.8,41.9,29.98,North,10,0.0,0.0,93,0.00,,SKC,0.01,VWS V13.01,2013-02-05 02:50:00,
2013-02-04 18:54:00,43.8,41.9,29.97,North,10,0.0,0.0,93,0.00,,SKC,0.01,VWS V13.01,2013-02-05 02:54:00,
2013-02-04 18:55:00,43.8,42.2,29.97,North,10,0.0,0.0,94,0.00,,SKC,0.01,VWS V13.01,2013-02-05 02:55:00,
2013-02-04 18:56:00,43.8,42.2,29.97,North,10,0.0,0.0,94,0.00,,SKC,0.01,VWS V13.01,2013-02-05 02:56:00,
2013-02-04 19:00:00,43.7,42.1,29.97,North,10,0.0,0.0,94,0.00,,SKC,0.01,VWS V13.01,2013-02-05 03:00:00,
2013-02-04 19:03:00,43.7,42.1,29.96,North,10,0.0,0.0,94,0.00,,SKC,0.01,VWS V13.01,2013-02-05 03:03:00,
2013-02-04 19:06:00,43.7,42.1,29.96,North,10,0.0,0.0,94,0.00,,SKC,0.01,VWS V13.01,2013-02-05 03:06:00,
2013-02-04 19:07:00,43.7,42.1,29.96,North,10,0.0,0.0,94,0.00,,SKC,0.01,VWS V13.01,2013-02-05 03:07:00,
2013-02-04 19:08:00,43.7,42.1,29.96,North,10,0.0,0.0,94,0.00,,SKC,0.01,VWS V13.01,2013-02-05 03:08:00,
2013-02-04 19:10:00,43.6,42.0,29.96,North,10,0.0,0.0,94,0.00,,SKC,0.01,VWS V13.01,2013-02-05 03:10:00,
2013-02-04 19:12:00,43.6,42.0,29.95,North,10,0.0,0.0,94,0.00,,SKC,0.01,VWS V13.01,2013-02-05 03:12:00,
2013-02-04 19:13:00,43.6,42.0,29.95,North,10,0.0,0.0,94,0.00,,SKC,0.01,VWS V13.01,2013-02-05 03:13:00,
2013-02-04 19:15:00,43.6,42.0,29.95,North,10,0.0,0.0,94,0.00,,SKC,0.01,VWS V13.01,2013-02-05 03:15:00,
2013-02-04 19:18:00,43.6,42.0,29.95,North,10,0.0,0.0,94,0.00,,SKC,0.01,VWS V13.01,2013-02-05 03:18:00,
2013-02-04 19:20:00,43.5,41.9,29.95,North,10,0.0,0.0,94,0.00,,SKC,0.01,VWS V13.01,2013-02-05 03:20:00,
2013-02-04 19:21:00,43.5,41.9,29.95,North,10,0.0,0.0,94,0.00,,SKC,0.01,VWS V13.01,2013-02-05 03:21:00,
2013-02-04 19:25:00,43.5,41.9,29.95,North,10,0.0,0.0,94,0.00,,SKC,0.01,VWS V13.01,2013-02-05 03:25:00,
2013-02-04 19:26:00,43.5,41.9,29.95,North,10,0.0,0.0,94,0.00,,SKC,0.01,VWS V13.01,2013-02-05 03:26:00,
2013-02-04 19:27:00,43.5,41.9,29.96,North,10,0.0,0.0,94,0.00,,SKC,0.01,VWS V13.01,2013-02-05 03:27:00,
2013-02-04 19:31:00,43.4,42.1,29.95,NNW,331,0.0,0.0,95,0.00,,SKC,0.01,VWS V13.01,2013-02-05 03:31:00,
2013-02-04 19:32:00,43.5,41.9,29.95,NNW,331,0.0,0.0,94,0.00,,SKC,0.01,VWS V13.01,2013-02-05 03:32:00,
2013-02-04 19:35:00,43.5,41.9,29.95,NNW,331,0.0,0.0,94,0.00,,SKC,0.01,VWS V13.01,2013-02-05 03:35:00,
2013-02-04 19:37:00,43.4,41.8,29.95,NNW,331,0.0,0.0,94,0.00,,SKC,0.01,VWS V13.01,2013-02-05 03:37:00,
2013-02-04 19:39:00,43.4,41.8,29.95,NNW,331,0.0,0.0,94,0.00,,SKC,0.01,VWS V13.01,2013-02-05 03:39:00,
2013-02-04 19:41:00,43.4,42.1,29.94,NNW,331,0.0,0.0,95,0.00,,SKC,0.01,VWS V13.01,2013-02-05 03:41:00,
2013-02-04 19:42:00,43.4,42.1,29.94,NNW,331,0.0,0.0,95,0.00,,SKC,0.01,VWS V13.01,2013-02-05 03:42:00,
2013-02-04 19:47:00,43.4,41.8,29.94,NNW,331,0.0,0.0,94,0.00,,SKC,0.01,VWS V13.01,2013-02-05 03:47:00,
2013-02-04 19:48:00,43.4,41.8,29.94,NNW,331,0.0,0.0,94,0.00,,SKC,0.01,VWS V13.01,2013-02-05 03:48:00,
2013-02-04 19:51:00,43.4,41.8,29.94,NNW,331,0.0,0.0,94,0.00,,SKC,0.01,VWS V13.01,2013-02-05 03:51:00,
2013-02-04 19:53:00,43.4,41.8,29.94,NNW,331,0.0,0.0,94,0.00,,SKC,0.01,VWS V13.01,2013-02-05 03:53:00,
2013-02-04 19:54:00,43.3,41.7,29.94,NNW,331,0.0,0.0,94,0.00,,SKC,0.01,VWS V13.01,2013-02-05 03:54:00,
2013-02-04 19:58:00,43.3,41.7,29.94,NNW,331,0.0,0.0,94,0.00,,SKC,0.01,VWS V13.01,2013-02-05 03:58:00,
2013-02-04 19:59:00,43.3,41.7,29.94,NNW,331,0.0,0.0,94,0.00,,SKC,0.01,VWS V13.01,2013-02-05 03:59:00,
2013-02-04 20:00:00,43.3,41.7,29.93,NNW,331,0.0,0.0,94,0.00,,SKC,0.01,VWS V13.01,2013-02-05 04:00:00,
2013-02-04 20:03:00,43.3,41.7,29.93,NNW,331,0.0,1.0,94,0.00,,SKC,0.01,VWS V13.01,2013-02-05 04:03:00,
2013-02-04 20:06:00,43.3,41.7,29.93,NNW,331,0.0,1.0,94,0.00,,SKC,0.01,VWS V13.01,2013-02-05 04:06:00,
2013-02-04 20:07:00,43.2,41.6,29.93,NNW,331,0.0,1.0,94,0.00,,SKC,0.01,VWS V13.01,2013-02-05 04:07:00,
2013-02-04 20:10:00,43.2,41.6,29.93,NNW,331,0.0,1.0,94,0.00,,SKC,0.01,VWS V13.01,2013-02-05 04:10:00,
2013-02-04 20:11:00,43.2,41.6,29.93,NNW,331,0.0,1.0,94,0.00,,SKC,0.01,VWS V13.01,2013-02-05 04:11:00,
2013-02-04 20:15:00,43.2,41.9,29.93,WSW,256,1.0,1.0,95,0.00,,SKC,0.01,VWS V13.01,2013-02-05 04:15:00,
2013-02-04 20:17:00,43.2,41.9,29.93,WSW,256,0.0,2.0,95,0.00,,SKC,0.01,VWS V13.01,2013-02-05 04:17:00,
2013-02-04 20:18:00,43.2,41.9,29.93,WSW,256,0.0,2.0,95,0.00,,SKC,0.01,VWS V13.01,2013-02-05 04:18:00,
2013-02-04 20:20:00,43.2,41.9,29.93,WSW,256,0.0,2.0,95,0.00,,SKC,0.01,VWS V13.01,2013-02-05 04:20:00,
2013-02-04 20:22:00,43.2,41.9,29.93,WSW,256,0.0,2.0,95,0.00,,SKC,0.01,VWS V13.01,2013-02-05 04:22:00,
2013-02-04 20:23:00,43.2,41.9,29.93,WSW,256,0.0,2.0,95,0.00,,SKC,0.01,VWS V13.01,2013-02-05 04:23:00,
2013-02-04 20:24:00,43.2,41.9,29.93,WSW,256,1.0,2.0,95,0.00,,SKC,0.01,VWS V13.01,2013-02-05 04:24:00,
2013-02-04 20:25:00,43.2,41.9,29.93,WSW,256,1.0,2.0,95,0.00,,SKC,0.01,VWS V13.01,2013-02-05 04:25:00,
2013-02-04 20:29:00,43.2,41.9,29.93,WSW,252,0.0,2.0,95,0.00,,SKC,0.01,VWS V13.01,2013-02-05 04:29:00,
2013-02-04 20:30:00,43.1,41.8,29.93,WSW,252,0.0,2.0,95,0.00,,SKC,0.01,VWS V13.01,2013-02-05 04:30:00,
2013-02-04 20:35:00,43.2,41.6,29.92,SW,226,0.0,2.0,94,0.00,,SKC,0.01,VWS V13.01,2013-02-05 04:35:00,
2013-02-04 20:36:00,43.1,41.5,29.92,SW,226,0.0,2.0,94,0.00,,SKC,0.01,VWS V13.01,2013-02-05 04:36:00,
2013-02-04 20:37:00,43.2,41.6,29.92,SW,224,0.0,2.0,94,0.00,,SKC,0.01,VWS V13.01,2013-02-05 04:37:00,
2013-02-04 20:40:00,43.1,41.5,29.92,SSW,205,0.0,2.0,94,0.00,,SKC,0.01,VWS V13.01,2013-02-05 04:40:00,
2013-02-04 20:42:00,43.1,41.5,29.92,South,191,0.0,2.0,94,0.00,,SKC,0.01,VWS V13.01,2013-02-05 04:42:00,
2013-02-04 20:43:00,43.1,41.5,29.92,South,191,0.0,2.0,94,0.00,,SKC,0.01,VWS V13.01,2013-02-05 04:43:00,
2013-02-04 20:46:00,43.1,41.5,29.92,SW,219,0.0,2.0,94,0.00,,SKC,0.01,VWS V13.01,2013-02-05 04:46:00,
2013-02-04 20:47:00,43.1,41.5,29.92,SW,219,0.0,2.0,94,0.00,,SKC,0.01,VWS V13.01,2013-02-05 04:47:00,
2013-02-04 20:50:00,43.1,41.5,29.92,SW,219,1.0,2.0,94,0.00,,SKC,0.01,VWS V13.01,2013-02-05 04:50:00,
2013-02-04 20:51:00,43.1,41.5,29.92,SW,219,0.0,2.0,94,0.00,,SKC,0.01,VWS V13.01,2013-02-05 04:51:00,
2013-02-04 20:52:00,43.1,41.5,29.92,SW,219,0.0,2.0,94,0.00,,SKC,0.01,VWS V13.01,2013-02-05 04:52:00,
2013-02-04 20:57:00,43.0,41.4,29.92,WSW,239,0.0,2.0,94,0.00,,SKC,0.01,VWS V13.01,2013-02-05 04:57:00,
2013-02-04 21:00:00,43.0,41.4,29.91,WSW,239,0.0,2.0,94,0.00,,SKC,0.01,VWS V13.01,2013-02-05 05:00:00,
2013-02-04 21:01:00,42.9,41.3,29.92,WSW,239,0.0,0.0,94,0.00,,SKC,0.01,VWS V13.01,2013-02-05 05:01:00,
2013-02-04 21:03:00,42.9,41.3,29.91,WSW,239,0.0,0.0,94,0.00,,SKC,0.01,VWS V13.01,2013-02-05 05:03:00,
2013-02-04 21:06:00,42.8,41.2,29.91,WSW,239,0.0,0.0,94,0.00,,SKC,0.01,VWS V13.01,2013-02-05 05:06:00,
2013-02-04 21:07:00,42.8,41.2,29.91,WSW,239,0.0,0.0,94,0.00,,SKC,0.01,VWS V13.01,2013-02-05 05:07:00,
2013-02-04 21:10:00,42.8,41.2,29.91,WSW,239,0.0,0.0,94,0.00,,SKC,0.01,VWS V13.01,2013-02-05 05:10:00,
2013-02-04 21:11:00,42.8,41.2,29.91,WSW,239,0.0,0.0,94,0.00,,SKC,0.01,VWS V13.01,2013-02-05 05:11:00,
2013-02-04 21:16:00,42.7,41.1,29.92,SW,232,0.0,2.0,94,0.00,,SKC,0.01,VWS V13.01,2013-02-05 05:16:00,
2013-02-04 21:17:00,42.8,41.2,29.92,SW,232,0.0,2.0,94,0.00,,SKC,0.01,VWS V13.01,2013-02-05 05:17:00,
2013-02-04 21:18:00,42.7,41.1,29.91,SW,232,0.0,2.0,94,0.00,,SKC,0.01,VWS V13.01,2013-02-05 05:18:00,
2013-02-04 21:22:00,42.8,41.2,29.91,SW,232,0.0,2.0,94,0.00,,SKC,0.01,VWS V13.01,2013-02-05 05:22:00,
2013-02-04 21:25:00,42.7,41.1,29.91,SW,232,0.0,2.0,94,0.00,,SKC,0.01,VWS V13.01,2013-02-05 05:25:00,
2013-02-04 21:26:00,42.7,41.1,29.91,SW,220,1.0,2.0,94,0.00,,SKC,0.01,VWS V13.01,2013-02-05 05:26:00,
2013-02-04 21:29:00,42.7,41.1,29.91,SW,235,0.0,3.0,94,0.00,,SKC,0.01,VWS V13.01,2013-02-05 05:29:00,
2013-02-04 21:30:00,42.7,41.1,29.91,SW,235,0.0,3.0,94,0.00,,SKC,0.01,VWS V13.01,2013-02-05 05:30:00,
2013-02-04 21:31:00,42.7,41.1,29.91,SW,235,0.0,1.0,94,0.00,,SKC,0.01,VWS V13.01,2013-02-05 05:31:00,
2013-02-04 21:33:00,42.7,41.1,29.91,SW,235,0.0,1.0,94,0.00,,SKC,0.01,VWS V13.01,2013-02-05 05:33:00,
2013-02-04 21:37:00,42.6,41.0,29.91,SW,235,0.0,1.0,94,0.00,,SKC,0.01,VWS V13.01,2013-02-05 05:37:00,
2013-02-04 21:39:00,42.6,41.0,29.91,WSW,253,0.0,2.0,94,0.00,,SKC,0.01,VWS V13.01,2013-02-05 05:39:00,
2013-02-04 21:42:00,42.6,41.0,29.91,WSW,253,0.0,2.0,94,0.00,,SKC,0.01,VWS V13.01,2013-02-05 05:42:00,
2013-02-04 21:43:00,42.6,41.0,29.90,WSW,253,0.0,2.0,94,0.00,,SKC,0.01,VWS V13.01,2013-02-05 05:43:00,
2013-02-04 21:46:00,42.6,41.0,29.90,WSW,253,0.0,2.0,94,0.00,,SKC,0.01,VWS V13.01,2013-02-05 05:46:00,
2013-02-04 21:47:00,42.5,40.9,29.90,WSW,253,0.0,2.0,94,0.00,,SKC,0.01,VWS V13.01,2013-02-05 05:47:00,
2013-02-04 21:51:00,42.5,40.9,29.90,WSW,253,0.0,2.0,94,0.00,,SKC,0.01,VWS V13.01,2013-02-05 05:51:00,
2013-02-04 21:53:00,42.4,40.8,29.90,WSW,253,1.0,2.0,94,0.00,,SKC,0.01,VWS V13.01,2013-02-05 05:53:00,
2013-02-04 21:54:00,42.4,40.8,29.90,WSW,253,0.0,2.0,94,0.00,,SKC,0.01,VWS V13.01,2013-02-05 05:54:00,
2013-02-04 21:58:00,42.2,40.6,29.90,WSW,253,0.0,2.0,94,0.00,,SKC,0.01,VWS V13.01,2013-02-05 05:58:00,
2013-02-04 22:00:00,42.2,40.6,29.90,WSW,253,0.0,2.0,94,0.00,,SKC,0.01,VWS V13.01,2013-02-05 06:00:00,
2013-02-04 22:02:00,42.2,40.6,29.90,WSW,253,0.0,0.0,94,0.00,,SKC,0.01,VWS V13.01,2013-02-05 06:02:00,
2013-02-04 22:04:00,42.1,40.5,29.89,WSW,253,0.0,0.0,94,0.00,,SKC,0.01,VWS V13.01,2013-02-05 06:04:00,
2013-02-04 22:06:00,42.1,40.5,29.89,WSW,253,0.0,0.0,94,0.00,,SKC,0.01,VWS V13.01,2013-02-05 06:06:00,
2013-02-04 22:07:00,42.1,40.8,29.89,WSW,253,0.0,0.0,95,0.00,,SKC,0.01,VWS V13.01,2013-02-05 06:07:00,
2013-02-04 22:10:00,42.1,40.8,29.90,WSW,253,0.0,0.0,95,0.00,,SKC,0.01,VWS V13.01,2013-02-05 06:10:00,
2013-02-04 22:11:00,42.1,40.8,29.90,WSW,253,0.0,0.0,95,0.00,,SKC,0.01,VWS V13.01,2013-02-05 06:11:00,
2013-02-04 22:12:00,42.1,40.8,29.90,WSW,253,0.0,0.0,95,0.00,,SKC,0.01,VWS V13.01,2013-02-05 06:12:00,
2013-02-04 22:16:00,42.1,40.8,29.90,WSW,253,0.0,0.0,95,0.00,,SKC,0.01,VWS V13.01,2013-02-05 06:16:00,
2013-02-04 22:17:00,42.1,40.8,29.90,WSW,253,0.0,0.0,95,0.00,,SKC,0.01,VWS V13.01,2013-02-05 06:17:00,
2013-02-04 22:22:00,42.2,40.9,29.89,WSW,253,0.0,0.0,95,0.00,,SKC,0.01,VWS V13.01,2013-02-05 06:22:00,
2013-02-04 22:23:00,42.2,40.9,29.89,WSW,253,0.0,0.0,95,0.00,,SKC,0.01,VWS V13.01,2013-02-05 06:23:00,
2013-02-04 22:25:00,42.2,40.9,29.89,WSW,253,0.0,0.0,95,0.00,,SKC,0.01,VWS V13.01,2013-02-05 06:25:00,
2013-02-04 22:26:00,42.3,41.0,29.89,WSW,253,0.0,0.0,95,0.00,,SKC,0.01,VWS V13.01,2013-02-05 06:26:00,
2013-02-04 22:29:00,42.4,41.1,29.89,WSW,253,0.0,0.0,95,0.00,,SKC,0.01,VWS V13.01,2013-02-05 06:29:00,
2013-02-04 22:30:00,42.4,41.1,29.89,WSW,253,0.0,0.0,95,0.00,,SKC,0.01,VWS V13.01,2013-02-05 06:30:00,
2013-02-04 22:31:00,42.4,41.1,29.89,WSW,253,0.0,0.0,95,0.00,,SKC,0.01,VWS V13.01,2013-02-05 06:31:00,
2013-02-04 22:33:00,42.4,41.1,29.88,WSW,253,0.0,0.0,95,0.00,,SKC,0.01,VWS V13.01,2013-02-05 06:33:00,
2013-02-04 22:37:00,42.5,41.2,29.88,WSW,253,0.0,0.0,95,0.00,,SKC,0.01,VWS V13.01,2013-02-05 06:37:00,
2013-02-04 22:38:00,42.5,41.2,29.88,WSW,253,0.0,0.0,95,0.00,,SKC,0.01,VWS V13.01,2013-02-05 06:38:00,
2013-02-04 22:41:00,42.6,41.3,29.88,WSW,253,0.0,0.0,95,0.00,,SKC,0.01,VWS V13.01,2013-02-05 06:41:00,
2013-02-04 22:42:00,42.6,41.3,29.88,WSW,253,0.0,1.0,95,0.00,,SKC,0.01,VWS V13.01,2013-02-05 06:42:00,
2013-02-04 22:45:00,42.7,41.4,29.88,WSW,253,0.0,1.0,95,0.00,,SKC,0.01,VWS V13.01,2013-02-05 06:45:00,
2013-02-04 23:21:00,43.6,41.7,29.87,SSW,196,0.0,2.0,93,0.00,,SKC,0.01,VWS V13.01,2013-02-05 07:21:00,
2013-02-04 23:22:00,43.6,41.7,29.87,SSW,196,0.0,2.0,93,0.00,,SKC,0.01,VWS V13.01,2013-02-05 07:22:00,
2013-02-04 23:24:00,43.7,41.8,29.87,SSW,196,0.0,2.0,93,0.00,,SKC,0.01,VWS V13.01,2013-02-05 07:24:00,
2013-02-04 23:26:00,43.7,41.8,29.87,SSW,195,0.0,2.0,93,0.00,,SKC,0.01,VWS V13.01,2013-02-05 07:26:00,
2013-02-04 23:28:00,43.8,41.9,29.86,SW,216,1.0,2.0,93,0.00,,SKC,0.01,VWS V13.01,2013-02-05 07:28:00,
2013-02-04 23:30:00,43.8,41.6,29.86,SW,216,0.0,2.0,92,0.00,,SKC,0.01,VWS V13.01,2013-02-05 07:30:00,
2013-02-04 23:32:00,43.9,41.7,29.86,SW,216,0.0,0.0,92,0.00,,SKC,0.01,VWS V13.01,2013-02-05 07:32:00,
2013-02-04 23:34:00,43.9,41.7,29.86,SW,215,0.0,2.0,92,0.00,,SKC,0.01,VWS V13.01,2013-02-05 07:34:00,
2013-02-04 23:36:00,44.0,41.8,29.86,SW,232,1.0,2.0,92,0.00,,SKC,0.01,VWS V13.01,2013-02-05 07:36:00,
2013-02-04 23:39:00,44.1,41.9,29.86,SW,214,2.0,4.0,92,0.00,,SKC,0.01,VWS V13.01,2013-02-05 07:39:00,
2013-02-04 23:40:00,44.1,41.9,29.87,SW,225,2.0,4.0,92,0.00,,SKC,0.01,VWS V13.01,2013-02-05 07:40:00,
2013-02-04 23:41:00,44.2,42.0,29.86,SW,229,1.0,4.0,92,0.00,,SKC,0.01,VWS V13.01,2013-02-05 07:41:00,
2013-02-04 23:44:00,44.2,42.0,29.86,SW,229,1.0,4.0,92,0.00,,SKC,0.01,VWS V13.01,2013-02-05 07:44:00,
2013-02-04 23:45:00,44.2,42.0,29.86,SW,229,0.0,4.0,92,0.00,,SKC,0.01,VWS V13.01,2013-02-05 07:45:00,
2013-02-04 23:46:00,44.3,42.1,29.86,SW,229,0.0,4.0,92,0.00,,SKC,0.01,VWS V13.01,2013-02-05 07:46:00,
2013-02-04 23:50:00,44.3,42.1,29.86,SW,229,0.0,4.0,92,0.00,,SKC,0.01,VWS V13.01,2013-02-05 07:50:00,
2013-02-04 23:51:00,44.3,41.8,29.86,West,262,1.0,5.0,91,0.00,,SKC,0.01,VWS V13.01,2013-02-05 07:51:00,
2013-02-04 23:53:00,44.3,42.1,29.86,West,271,1.0,5.0,92,0.00,,SKC,0.01,VWS V13.01,2013-02-05 07:53:00,
2013-02-04 23:54:00,44.3,41.8,29.86,West,268,0.0,5.0,91,0.00,,SKC,0.01,VWS V13.01,2013-02-05 07:54:00,
2013-02-04 23:56:00,44.3,41.8,29.86,WSW,250,0.0,5.0,91,0.00,,SKC,0.01,VWS V13.01,2013-02-05 07:56:00,
2013-02-04 23:58:00,44.3,41.8,29.86,WSW,249,1.0,5.0,91,0.00,,SKC,0.01,VWS V13.01,2013-02-05 07:58:00,